<?xml version="1.0" encoding="UTF-8" standalone="no" ?>
<gpx xmlns="http://www.topografix.com/GPX/1/1" xmlns:xsi="http://www.w3.org/2001/XMLSchema-instance" xsi:schemaLocation="http://www.topografix.com/GPX/1/1 http://www.topografix.com/GPX/1/1/gpx.xsd" version="1.1" creator="VisuGPX - https://www.visugpx.com">
  <metadata>
    <name>GT VTT de l\'Ardèche</name>
    <desc><![CDATA[200kms en 4j
niveau facile
parfois de bonnes descentes
paysages     ]]></desc>
  </metadata>
  <trk>
    <name><![CDATA[11-JUIL-14 16:54:32]]></name>
    <trkseg>
      <trkpt lat="45.05303" lon="4.39492">
        <ele>1096</ele>
        <time>2014-07-11T09:54:06Z</time>
      </trkpt>
      <trkpt lat="45.05302" lon="4.39508">
        <ele>1096</ele>
        <time>2014-07-11T09:54:15Z</time>
      </trkpt>
      <trkpt lat="45.05304" lon="4.39506">
        <ele>1096</ele>
        <time>2014-07-11T09:54:18Z</time>
      </trkpt>
      <trkpt lat="45.05304" lon="4.39505">
        <ele>1096</ele>
        <time>2014-07-11T09:54:20Z</time>
      </trkpt>
      <trkpt lat="45.05304" lon="4.39504">
        <ele>1096</ele>
        <time>2014-07-11T09:54:21Z</time>
      </trkpt>
      <trkpt lat="45.05303" lon="4.39504">
        <ele>1096</ele>
        <time>2014-07-11T09:54:23Z</time>
      </trkpt>
      <trkpt lat="45.05303" lon="4.39504">
        <ele>1096</ele>
        <time>2014-07-11T09:54:25Z</time>
      </trkpt>
      <trkpt lat="45.05303" lon="4.39504">
        <ele>1096</ele>
        <time>2014-07-11T09:54:27Z</time>
      </trkpt>
      <trkpt lat="45.05303" lon="4.39504">
        <ele>1096</ele>
        <time>2014-07-11T09:54:29Z</time>
      </trkpt>
      <trkpt lat="45.05304" lon="4.39505">
        <ele>1096</ele>
        <time>2014-07-11T09:54:31Z</time>
      </trkpt>
      <trkpt lat="45.05304" lon="4.39505">
        <ele>1096</ele>
        <time>2014-07-11T09:54:33Z</time>
      </trkpt>
      <trkpt lat="45.05305" lon="4.39505">
        <ele>1096</ele>
        <time>2014-07-11T09:54:35Z</time>
      </trkpt>
      <trkpt lat="45.05306" lon="4.39505">
        <ele>1096</ele>
        <time>2014-07-11T09:54:36Z</time>
      </trkpt>
      <trkpt lat="45.05307" lon="4.39505">
        <ele>1096</ele>
        <time>2014-07-11T09:54:39Z</time>
      </trkpt>
      <trkpt lat="45.05307" lon="4.39505">
        <ele>1096</ele>
        <time>2014-07-11T09:54:42Z</time>
      </trkpt>
      <trkpt lat="45.05307" lon="4.39506">
        <ele>1096</ele>
        <time>2014-07-11T09:54:45Z</time>
      </trkpt>
      <trkpt lat="45.05306" lon="4.39506">
        <ele>1096</ele>
        <time>2014-07-11T09:54:51Z</time>
      </trkpt>
      <trkpt lat="45.05306" lon="4.39506">
        <ele>1096</ele>
        <time>2014-07-11T09:54:59Z</time>
      </trkpt>
      <trkpt lat="45.05306" lon="4.39506">
        <ele>1096</ele>
        <time>2014-07-11T09:55:07Z</time>
      </trkpt>
      <trkpt lat="45.05306" lon="4.39507">
        <ele>1096</ele>
        <time>2014-07-11T09:55:20Z</time>
      </trkpt>
      <trkpt lat="45.05308" lon="4.39506">
        <ele>1096</ele>
        <time>2014-07-11T09:56:16Z</time>
      </trkpt>
      <trkpt lat="45.05307" lon="4.3951">
        <ele>1096</ele>
        <time>2014-07-11T09:56:49Z</time>
      </trkpt>
      <trkpt lat="45.05311" lon="4.3951">
        <ele>1096</ele>
        <time>2014-07-11T10:00:35Z</time>
      </trkpt>
      <trkpt lat="45.05307" lon="4.39507">
        <ele>1096</ele>
        <time>2014-07-11T10:03:37Z</time>
      </trkpt>
      <trkpt lat="45.0531" lon="4.3951">
        <ele>1096</ele>
        <time>2014-07-11T10:05:50Z</time>
      </trkpt>
      <trkpt lat="45.05308" lon="4.39509">
        <ele>1096</ele>
        <time>2014-07-11T10:08:23Z</time>
      </trkpt>
      <trkpt lat="45.05307" lon="4.39506">
        <ele>1096</ele>
        <time>2014-07-11T10:12:04Z</time>
      </trkpt>
      <trkpt lat="45.05312" lon="4.39509">
        <ele>1096</ele>
        <time>2014-07-11T10:14:34Z</time>
      </trkpt>
      <trkpt lat="45.05308" lon="4.39507">
        <ele>1096</ele>
        <time>2014-07-11T10:16:58Z</time>
      </trkpt>
      <trkpt lat="45.0531" lon="4.39506">
        <ele>1096</ele>
        <time>2014-07-11T10:19:02Z</time>
      </trkpt>
      <trkpt lat="45.05309" lon="4.39504">
        <ele>1096</ele>
        <time>2014-07-11T10:20:41Z</time>
      </trkpt>
      <trkpt lat="45.0531" lon="4.39506">
        <ele>1096</ele>
        <time>2014-07-11T10:21:58Z</time>
      </trkpt>
      <trkpt lat="45.05307" lon="4.39512">
        <ele>1096</ele>
        <time>2014-07-11T10:22:16Z</time>
      </trkpt>
      <trkpt lat="45.05307" lon="4.39513">
        <ele>1096</ele>
        <time>2014-07-11T10:23:03Z</time>
      </trkpt>
      <trkpt lat="45.05307" lon="4.39507">
        <ele>1096</ele>
        <time>2014-07-11T10:23:43Z</time>
      </trkpt>
      <trkpt lat="45.05306" lon="4.39506">
        <ele>1096</ele>
        <time>2014-07-11T10:24:31Z</time>
      </trkpt>
      <trkpt lat="45.05315" lon="4.3955">
        <ele>1096</ele>
        <time>2014-07-11T10:24:51Z</time>
      </trkpt>
      <trkpt lat="45.0533" lon="4.39604">
        <ele>1096</ele>
        <time>2014-07-11T10:25:17Z</time>
      </trkpt>
      <trkpt lat="45.0533" lon="4.39607">
        <ele>1096</ele>
        <time>2014-07-11T10:25:18Z</time>
      </trkpt>
      <trkpt lat="45.0535" lon="4.39681">
        <ele>1100</ele>
        <time>2014-07-11T10:25:35Z</time>
      </trkpt>
      <trkpt lat="45.05368" lon="4.39745">
        <ele>1102</ele>
        <time>2014-07-11T10:25:48Z</time>
      </trkpt>
      <trkpt lat="45.05378" lon="4.39765">
        <ele>1102</ele>
        <time>2014-07-11T10:25:52Z</time>
      </trkpt>
      <trkpt lat="45.05417" lon="4.39846">
        <ele>1103</ele>
        <time>2014-07-11T10:26:07Z</time>
      </trkpt>
      <trkpt lat="45.05423" lon="4.39857">
        <ele>1103</ele>
        <time>2014-07-11T10:26:09Z</time>
      </trkpt>
      <trkpt lat="45.05426" lon="4.39862">
        <ele>1102</ele>
        <time>2014-07-11T10:26:10Z</time>
      </trkpt>
      <trkpt lat="45.05431" lon="4.39873">
        <ele>1102</ele>
        <time>2014-07-11T10:26:12Z</time>
      </trkpt>
      <trkpt lat="45.05448" lon="4.39909">
        <ele>1101</ele>
        <time>2014-07-11T10:26:19Z</time>
      </trkpt>
      <trkpt lat="45.0546" lon="4.40009">
        <ele>1094</ele>
        <time>2014-07-11T10:26:36Z</time>
      </trkpt>
      <trkpt lat="45.05468" lon="4.40086">
        <ele>1095</ele>
        <time>2014-07-11T10:26:56Z</time>
      </trkpt>
      <trkpt lat="45.05522" lon="4.40125">
        <ele>1095</ele>
        <time>2014-07-11T10:27:17Z</time>
      </trkpt>
      <trkpt lat="45.05525" lon="4.40127">
        <ele>1095</ele>
        <time>2014-07-11T10:27:29Z</time>
      </trkpt>
      <trkpt lat="45.05526" lon="4.40128">
        <ele>1095</ele>
        <time>2014-07-11T10:27:43Z</time>
      </trkpt>
      <trkpt lat="45.05503" lon="4.4011">
        <ele>1096</ele>
        <time>2014-07-11T10:28:06Z</time>
      </trkpt>
      <trkpt lat="45.055" lon="4.40109">
        <ele>1096</ele>
        <time>2014-07-11T10:28:32Z</time>
      </trkpt>
      <trkpt lat="45.0547" lon="4.40076">
        <ele>1095</ele>
        <time>2014-07-11T10:29:25Z</time>
      </trkpt>
      <trkpt lat="45.05451" lon="4.39911">
        <ele>1101</ele>
        <time>2014-07-11T10:29:53Z</time>
      </trkpt>
      <trkpt lat="45.05431" lon="4.39869">
        <ele>1102</ele>
        <time>2014-07-11T10:30:02Z</time>
      </trkpt>
      <trkpt lat="45.05404" lon="4.39816">
        <ele>1103</ele>
        <time>2014-07-11T10:30:13Z</time>
      </trkpt>
      <trkpt lat="45.05373" lon="4.39747">
        <ele>1102</ele>
        <time>2014-07-11T10:30:27Z</time>
      </trkpt>
      <trkpt lat="45.05357" lon="4.39703">
        <ele>1101</ele>
        <time>2014-07-11T10:30:35Z</time>
      </trkpt>
      <trkpt lat="45.05349" lon="4.39678">
        <ele>1100</ele>
        <time>2014-07-11T10:30:39Z</time>
      </trkpt>
      <trkpt lat="45.05347" lon="4.39672">
        <ele>1100</ele>
        <time>2014-07-11T10:30:40Z</time>
      </trkpt>
      <trkpt lat="45.0532" lon="4.39611">
        <ele>1095</ele>
        <time>2014-07-11T10:31:05Z</time>
      </trkpt>
      <trkpt lat="45.05313" lon="4.39606">
        <ele>1095</ele>
        <time>2014-07-11T10:31:21Z</time>
      </trkpt>
      <trkpt lat="45.05261" lon="4.39569">
        <ele>1092</ele>
        <time>2014-07-11T10:31:38Z</time>
      </trkpt>
      <trkpt lat="45.05242" lon="4.39553">
        <ele>1088</ele>
        <time>2014-07-11T10:31:42Z</time>
      </trkpt>
      <trkpt lat="45.05215" lon="4.3953">
        <ele>1087</ele>
        <time>2014-07-11T10:31:48Z</time>
      </trkpt>
      <trkpt lat="45.05192" lon="4.39538">
        <ele>1085</ele>
        <time>2014-07-11T10:31:53Z</time>
      </trkpt>
      <trkpt lat="45.05161" lon="4.3957">
        <ele>1080</ele>
        <time>2014-07-11T10:31:59Z</time>
      </trkpt>
      <trkpt lat="45.05147" lon="4.39579">
        <ele>1080</ele>
        <time>2014-07-11T10:32:01Z</time>
      </trkpt>
      <trkpt lat="45.05114" lon="4.39595">
        <ele>1079</ele>
        <time>2014-07-11T10:32:06Z</time>
      </trkpt>
      <trkpt lat="45.05099" lon="4.39606">
        <ele>1079</ele>
        <time>2014-07-11T10:32:09Z</time>
      </trkpt>
      <trkpt lat="45.05085" lon="4.3962">
        <ele>1079</ele>
        <time>2014-07-11T10:32:12Z</time>
      </trkpt>
      <trkpt lat="45.0508" lon="4.39624">
        <ele>1078</ele>
        <time>2014-07-11T10:32:13Z</time>
      </trkpt>
      <trkpt lat="45.05007" lon="4.39683">
        <ele>1081</ele>
        <time>2014-07-11T10:32:31Z</time>
      </trkpt>
      <trkpt lat="45.04974" lon="4.39677">
        <ele>1083</ele>
        <time>2014-07-11T10:32:38Z</time>
      </trkpt>
      <trkpt lat="45.04963" lon="4.39666">
        <ele>1083</ele>
        <time>2014-07-11T10:32:41Z</time>
      </trkpt>
      <trkpt lat="45.04954" lon="4.39646">
        <ele>1083</ele>
        <time>2014-07-11T10:32:45Z</time>
      </trkpt>
      <trkpt lat="45.04947" lon="4.39592">
        <ele>1084</ele>
        <time>2014-07-11T10:32:58Z</time>
      </trkpt>
      <trkpt lat="45.04925" lon="4.39569">
        <ele>1085</ele>
        <time>2014-07-11T10:33:06Z</time>
      </trkpt>
      <trkpt lat="45.04892" lon="4.39536">
        <ele>1091</ele>
        <time>2014-07-11T10:33:24Z</time>
      </trkpt>
      <trkpt lat="45.04879" lon="4.39525">
        <ele>1091</ele>
        <time>2014-07-11T10:33:28Z</time>
      </trkpt>
      <trkpt lat="45.04844" lon="4.39526">
        <ele>1093</ele>
        <time>2014-07-11T10:33:40Z</time>
      </trkpt>
      <trkpt lat="45.04843" lon="4.39541">
        <ele>1093</ele>
        <time>2014-07-11T10:33:52Z</time>
      </trkpt>
      <trkpt lat="45.04812" lon="4.39514">
        <ele>1095</ele>
        <time>2014-07-11T10:34:04Z</time>
      </trkpt>
      <trkpt lat="45.04788" lon="4.39511">
        <ele>1095</ele>
        <time>2014-07-11T10:34:09Z</time>
      </trkpt>
      <trkpt lat="45.0476" lon="4.39512">
        <ele>1094</ele>
        <time>2014-07-11T10:34:15Z</time>
      </trkpt>
      <trkpt lat="45.04722" lon="4.39514">
        <ele>1093</ele>
        <time>2014-07-11T10:34:23Z</time>
      </trkpt>
      <trkpt lat="45.04685" lon="4.39436">
        <ele>1084</ele>
        <time>2014-07-11T10:34:41Z</time>
      </trkpt>
      <trkpt lat="45.04682" lon="4.39352">
        <ele>1075</ele>
        <time>2014-07-11T10:34:53Z</time>
      </trkpt>
      <trkpt lat="45.04684" lon="4.39189">
        <ele>1072</ele>
        <time>2014-07-11T10:35:18Z</time>
      </trkpt>
      <trkpt lat="45.04689" lon="4.39132">
        <ele>1077</ele>
        <time>2014-07-11T10:35:31Z</time>
      </trkpt>
      <trkpt lat="45.04732" lon="4.39082">
        <ele>1083</ele>
        <time>2014-07-11T10:35:49Z</time>
      </trkpt>
      <trkpt lat="45.04748" lon="4.39069">
        <ele>1082</ele>
        <time>2014-07-11T10:35:54Z</time>
      </trkpt>
      <trkpt lat="45.04752" lon="4.39065">
        <ele>1080</ele>
        <time>2014-07-11T10:35:55Z</time>
      </trkpt>
      <trkpt lat="45.04763" lon="4.38993">
        <ele>1083</ele>
        <time>2014-07-11T10:36:10Z</time>
      </trkpt>
      <trkpt lat="45.04748" lon="4.38896">
        <ele>1090</ele>
        <time>2014-07-11T10:36:34Z</time>
      </trkpt>
      <trkpt lat="45.04726" lon="4.38767">
        <ele>1094</ele>
        <time>2014-07-11T10:37:14Z</time>
      </trkpt>
      <trkpt lat="45.04669" lon="4.38633">
        <ele>1090</ele>
        <time>2014-07-11T10:37:53Z</time>
      </trkpt>
      <trkpt lat="45.04658" lon="4.38594">
        <ele>1091</ele>
        <time>2014-07-11T10:38:03Z</time>
      </trkpt>
      <trkpt lat="45.04657" lon="4.38556">
        <ele>1091</ele>
        <time>2014-07-11T10:38:12Z</time>
      </trkpt>
      <trkpt lat="45.04656" lon="4.38496">
        <ele>1092</ele>
        <time>2014-07-11T10:38:25Z</time>
      </trkpt>
      <trkpt lat="45.04621" lon="4.38432">
        <ele>1097</ele>
        <time>2014-07-11T10:38:47Z</time>
      </trkpt>
      <trkpt lat="45.04591" lon="4.38362">
        <ele>1103</ele>
        <time>2014-07-11T10:39:07Z</time>
      </trkpt>
      <trkpt lat="45.04584" lon="4.38344">
        <ele>1102</ele>
        <time>2014-07-11T10:39:13Z</time>
      </trkpt>
      <trkpt lat="45.04584" lon="4.38338">
        <ele>1102</ele>
        <time>2014-07-11T10:39:15Z</time>
      </trkpt>
      <trkpt lat="45.04595" lon="4.38318">
        <ele>1105</ele>
        <time>2014-07-11T10:39:24Z</time>
      </trkpt>
      <trkpt lat="45.04599" lon="4.38302">
        <ele>1106</ele>
        <time>2014-07-11T10:39:30Z</time>
      </trkpt>
      <trkpt lat="45.04591" lon="4.38172">
        <ele>1103</ele>
        <time>2014-07-11T10:40:05Z</time>
      </trkpt>
      <trkpt lat="45.04622" lon="4.38167">
        <ele>1102</ele>
        <time>2014-07-11T10:40:21Z</time>
      </trkpt>
      <trkpt lat="45.04686" lon="4.38145">
        <ele>1105</ele>
        <time>2014-07-11T10:40:38Z</time>
      </trkpt>
      <trkpt lat="45.04775" lon="4.38117">
        <ele>1104</ele>
        <time>2014-07-11T10:41:01Z</time>
      </trkpt>
      <trkpt lat="45.04859" lon="4.38093">
        <ele>1102</ele>
        <time>2014-07-11T10:41:21Z</time>
      </trkpt>
      <trkpt lat="45.05138" lon="4.37984">
        <ele>1107</ele>
        <time>2014-07-11T10:42:36Z</time>
      </trkpt>
      <trkpt lat="45.05155" lon="4.37977">
        <ele>1107</ele>
        <time>2014-07-11T10:43:00Z</time>
      </trkpt>
      <trkpt lat="45.05156" lon="4.3797">
        <ele>1107</ele>
        <time>2014-07-11T10:43:18Z</time>
      </trkpt>
      <trkpt lat="45.05133" lon="4.37988">
        <ele>1107</ele>
        <time>2014-07-11T10:43:32Z</time>
      </trkpt>
      <trkpt lat="45.0509" lon="4.38009">
        <ele>1106</ele>
        <time>2014-07-11T10:43:46Z</time>
      </trkpt>
      <trkpt lat="45.04939" lon="4.38067">
        <ele>1105</ele>
        <time>2014-07-11T10:44:30Z</time>
      </trkpt>
      <trkpt lat="45.0465" lon="4.38155">
        <ele>1103</ele>
        <time>2014-07-11T10:45:40Z</time>
      </trkpt>
      <trkpt lat="45.04582" lon="4.38169">
        <ele>1102</ele>
        <time>2014-07-11T10:45:54Z</time>
      </trkpt>
      <trkpt lat="45.04437" lon="4.38156">
        <ele>1103</ele>
        <time>2014-07-11T10:46:22Z</time>
      </trkpt>
      <trkpt lat="45.04343" lon="4.38163">
        <ele>1104</ele>
        <time>2014-07-11T10:46:41Z</time>
      </trkpt>
      <trkpt lat="45.04332" lon="4.38163">
        <ele>1104</ele>
        <time>2014-07-11T10:46:43Z</time>
      </trkpt>
      <trkpt lat="45.04221" lon="4.38176">
        <ele>1103</ele>
        <time>2014-07-11T10:47:06Z</time>
      </trkpt>
      <trkpt lat="45.04212" lon="4.38172">
        <ele>1102</ele>
        <time>2014-07-11T10:47:09Z</time>
      </trkpt>
      <trkpt lat="45.04163" lon="4.38104">
        <ele>1104</ele>
        <time>2014-07-11T10:47:27Z</time>
      </trkpt>
      <trkpt lat="45.0407" lon="4.37989">
        <ele>1110</ele>
        <time>2014-07-11T10:48:05Z</time>
      </trkpt>
      <trkpt lat="45.04037" lon="4.37933">
        <ele>1111</ele>
        <time>2014-07-11T10:48:21Z</time>
      </trkpt>
      <trkpt lat="45.03968" lon="4.37797">
        <ele>1104</ele>
        <time>2014-07-11T10:48:41Z</time>
      </trkpt>
      <trkpt lat="45.03946" lon="4.37748">
        <ele>1100</ele>
        <time>2014-07-11T10:48:46Z</time>
      </trkpt>
      <trkpt lat="45.03939" lon="4.37712">
        <ele>1100</ele>
        <time>2014-07-11T10:48:51Z</time>
      </trkpt>
      <trkpt lat="45.0392" lon="4.37621">
        <ele>1099</ele>
        <time>2014-07-11T10:49:12Z</time>
      </trkpt>
      <trkpt lat="45.03915" lon="4.37608">
        <ele>1095</ele>
        <time>2014-07-11T10:49:17Z</time>
      </trkpt>
      <trkpt lat="45.03882" lon="4.37588">
        <ele>1094</ele>
        <time>2014-07-11T10:49:29Z</time>
      </trkpt>
      <trkpt lat="45.03834" lon="4.37558">
        <ele>1094</ele>
        <time>2014-07-11T10:49:44Z</time>
      </trkpt>
      <trkpt lat="45.03773" lon="4.37573">
        <ele>1090</ele>
        <time>2014-07-11T10:50:08Z</time>
      </trkpt>
      <trkpt lat="45.03655" lon="4.37631">
        <ele>1080</ele>
        <time>2014-07-11T10:50:40Z</time>
      </trkpt>
      <trkpt lat="45.03638" lon="4.37639">
        <ele>1080</ele>
        <time>2014-07-11T10:50:44Z</time>
      </trkpt>
      <trkpt lat="45.03522" lon="4.37731">
        <ele>1075</ele>
        <time>2014-07-11T10:51:13Z</time>
      </trkpt>
      <trkpt lat="45.03432" lon="4.3776">
        <ele>1081</ele>
        <time>2014-07-11T10:51:41Z</time>
      </trkpt>
      <trkpt lat="45.03398" lon="4.37759">
        <ele>1080</ele>
        <time>2014-07-11T10:51:54Z</time>
      </trkpt>
      <trkpt lat="45.03353" lon="4.37757">
        <ele>1078</ele>
        <time>2014-07-11T10:52:07Z</time>
      </trkpt>
      <trkpt lat="45.03271" lon="4.37796">
        <ele>1071</ele>
        <time>2014-07-11T10:52:26Z</time>
      </trkpt>
      <trkpt lat="45.03141" lon="4.37785">
        <ele>1064</ele>
        <time>2014-07-11T10:52:50Z</time>
      </trkpt>
      <trkpt lat="45.0311" lon="4.3778">
        <ele>1063</ele>
        <time>2014-07-11T10:52:54Z</time>
      </trkpt>
      <trkpt lat="45.03091" lon="4.37742">
        <ele>1062</ele>
        <time>2014-07-11T10:53:00Z</time>
      </trkpt>
      <trkpt lat="45.03091" lon="4.37735">
        <ele>1063</ele>
        <time>2014-07-11T10:53:01Z</time>
      </trkpt>
      <trkpt lat="45.03093" lon="4.3771">
        <ele>1063</ele>
        <time>2014-07-11T10:53:05Z</time>
      </trkpt>
      <trkpt lat="45.03093" lon="4.37696">
        <ele>1062</ele>
        <time>2014-07-11T10:53:17Z</time>
      </trkpt>
      <trkpt lat="45.03053" lon="4.37735">
        <ele>1060</ele>
        <time>2014-07-11T10:53:36Z</time>
      </trkpt>
      <trkpt lat="45.03019" lon="4.37745">
        <ele>1060</ele>
        <time>2014-07-11T10:53:47Z</time>
      </trkpt>
      <trkpt lat="45.02989" lon="4.37696">
        <ele>1058</ele>
        <time>2014-07-11T10:53:57Z</time>
      </trkpt>
      <trkpt lat="45.02971" lon="4.37678">
        <ele>1058</ele>
        <time>2014-07-11T10:54:02Z</time>
      </trkpt>
      <trkpt lat="45.02829" lon="4.37543">
        <ele>1060</ele>
        <time>2014-07-11T10:54:46Z</time>
      </trkpt>
      <trkpt lat="45.02763" lon="4.37486">
        <ele>1061</ele>
        <time>2014-07-11T10:55:05Z</time>
      </trkpt>
      <trkpt lat="45.02758" lon="4.37483">
        <ele>1061</ele>
        <time>2014-07-11T10:55:06Z</time>
      </trkpt>
      <trkpt lat="45.02716" lon="4.37456">
        <ele>1055</ele>
        <time>2014-07-11T10:55:14Z</time>
      </trkpt>
      <trkpt lat="45.0266" lon="4.37393">
        <ele>1047</ele>
        <time>2014-07-11T10:55:25Z</time>
      </trkpt>
      <trkpt lat="45.02656" lon="4.37384">
        <ele>1047</ele>
        <time>2014-07-11T10:55:26Z</time>
      </trkpt>
      <trkpt lat="45.02656" lon="4.37332">
        <ele>1046</ele>
        <time>2014-07-11T10:55:31Z</time>
      </trkpt>
      <trkpt lat="45.02657" lon="4.37323">
        <ele>1045</ele>
        <time>2014-07-11T10:55:32Z</time>
      </trkpt>
      <trkpt lat="45.02658" lon="4.37305">
        <ele>1044</ele>
        <time>2014-07-11T10:55:34Z</time>
      </trkpt>
      <trkpt lat="45.02649" lon="4.37252">
        <ele>1043</ele>
        <time>2014-07-11T10:55:41Z</time>
      </trkpt>
      <trkpt lat="45.02593" lon="4.37166">
        <ele>1043</ele>
        <time>2014-07-11T10:55:58Z</time>
      </trkpt>
      <trkpt lat="45.02589" lon="4.37162">
        <ele>1043</ele>
        <time>2014-07-11T10:55:59Z</time>
      </trkpt>
      <trkpt lat="45.02586" lon="4.37158">
        <ele>1043</ele>
        <time>2014-07-11T10:56:00Z</time>
      </trkpt>
      <trkpt lat="45.02433" lon="4.36979">
        <ele>1049</ele>
        <time>2014-07-11T10:56:48Z</time>
      </trkpt>
      <trkpt lat="45.02349" lon="4.3688">
        <ele>1041</ele>
        <time>2014-07-11T10:57:12Z</time>
      </trkpt>
      <trkpt lat="45.02331" lon="4.36858">
        <ele>1039</ele>
        <time>2014-07-11T10:57:17Z</time>
      </trkpt>
      <trkpt lat="45.02211" lon="4.36694">
        <ele>1034</ele>
        <time>2014-07-11T10:57:51Z</time>
      </trkpt>
      <trkpt lat="45.02199" lon="4.3668">
        <ele>1033</ele>
        <time>2014-07-11T10:57:55Z</time>
      </trkpt>
      <trkpt lat="45.02188" lon="4.36603">
        <ele>1031</ele>
        <time>2014-07-11T10:58:07Z</time>
      </trkpt>
      <trkpt lat="45.02181" lon="4.36562">
        <ele>1030</ele>
        <time>2014-07-11T10:58:13Z</time>
      </trkpt>
      <trkpt lat="45.02137" lon="4.36356">
        <ele>1029</ele>
        <time>2014-07-11T10:58:47Z</time>
      </trkpt>
      <trkpt lat="45.02118" lon="4.36332">
        <ele>1030</ele>
        <time>2014-07-11T10:58:54Z</time>
      </trkpt>
      <trkpt lat="45.01993" lon="4.36286">
        <ele>1034</ele>
        <time>2014-07-11T10:59:25Z</time>
      </trkpt>
      <trkpt lat="45.01953" lon="4.36288">
        <ele>1034</ele>
        <time>2014-07-11T10:59:34Z</time>
      </trkpt>
      <trkpt lat="45.01925" lon="4.36291">
        <ele>1034</ele>
        <time>2014-07-11T10:59:40Z</time>
      </trkpt>
      <trkpt lat="45.01888" lon="4.36304">
        <ele>1033</ele>
        <time>2014-07-11T10:59:47Z</time>
      </trkpt>
      <trkpt lat="45.01851" lon="4.36286">
        <ele>1033</ele>
        <time>2014-07-11T10:59:55Z</time>
      </trkpt>
      <trkpt lat="45.01797" lon="4.36267">
        <ele>1035</ele>
        <time>2014-07-11T11:00:09Z</time>
      </trkpt>
      <trkpt lat="45.01795" lon="4.36244">
        <ele>1033</ele>
        <time>2014-07-11T11:00:13Z</time>
      </trkpt>
      <trkpt lat="45.01794" lon="4.3623">
        <ele>1033</ele>
        <time>2014-07-11T11:00:15Z</time>
      </trkpt>
      <trkpt lat="45.01795" lon="4.36223">
        <ele>1033</ele>
        <time>2014-07-11T11:00:16Z</time>
      </trkpt>
      <trkpt lat="45.01789" lon="4.36163">
        <ele>1031</ele>
        <time>2014-07-11T11:00:23Z</time>
      </trkpt>
      <trkpt lat="45.01781" lon="4.36121">
        <ele>1030</ele>
        <time>2014-07-11T11:00:27Z</time>
      </trkpt>
      <trkpt lat="45.01762" lon="4.3605">
        <ele>1029</ele>
        <time>2014-07-11T11:00:34Z</time>
      </trkpt>
      <trkpt lat="45.01733" lon="4.3597">
        <ele>1028</ele>
        <time>2014-07-11T11:00:47Z</time>
      </trkpt>
      <trkpt lat="45.01719" lon="4.35919">
        <ele>1028</ele>
        <time>2014-07-11T11:00:58Z</time>
      </trkpt>
      <trkpt lat="45.01662" lon="4.35755">
        <ele>1028</ele>
        <time>2014-07-11T11:01:27Z</time>
      </trkpt>
      <trkpt lat="45.01627" lon="4.35695">
        <ele>1025</ele>
        <time>2014-07-11T11:01:40Z</time>
      </trkpt>
      <trkpt lat="45.01634" lon="4.35687">
        <ele>1025</ele>
        <time>2014-07-11T11:01:44Z</time>
      </trkpt>
      <trkpt lat="45.01709" lon="4.35665">
        <ele>1030</ele>
        <time>2014-07-11T11:02:07Z</time>
      </trkpt>
      <trkpt lat="45.0181" lon="4.35609">
        <ele>1034</ele>
        <time>2014-07-11T11:02:39Z</time>
      </trkpt>
      <trkpt lat="45.01856" lon="4.35584">
        <ele>1036</ele>
        <time>2014-07-11T11:02:54Z</time>
      </trkpt>
      <trkpt lat="45.01912" lon="4.35557">
        <ele>1037</ele>
        <time>2014-07-11T11:03:11Z</time>
      </trkpt>
      <trkpt lat="45.01929" lon="4.35545">
        <ele>1035</ele>
        <time>2014-07-11T11:03:16Z</time>
      </trkpt>
      <trkpt lat="45.01901" lon="4.35479">
        <ele>1039</ele>
        <time>2014-07-11T11:03:31Z</time>
      </trkpt>
      <trkpt lat="45.01881" lon="4.35438">
        <ele>1040</ele>
        <time>2014-07-11T11:03:41Z</time>
      </trkpt>
      <trkpt lat="45.01847" lon="4.35343">
        <ele>1040</ele>
        <time>2014-07-11T11:03:55Z</time>
      </trkpt>
      <trkpt lat="45.01805" lon="4.35269">
        <ele>1034</ele>
        <time>2014-07-11T11:04:04Z</time>
      </trkpt>
      <trkpt lat="45.01748" lon="4.35174">
        <ele>1028</ele>
        <time>2014-07-11T11:04:18Z</time>
      </trkpt>
      <trkpt lat="45.01703" lon="4.35075">
        <ele>1028</ele>
        <time>2014-07-11T11:04:34Z</time>
      </trkpt>
      <trkpt lat="45.01633" lon="4.34902">
        <ele>1019</ele>
        <time>2014-07-11T11:04:58Z</time>
      </trkpt>
      <trkpt lat="45.01618" lon="4.34865">
        <ele>1018</ele>
        <time>2014-07-11T11:05:01Z</time>
      </trkpt>
      <trkpt lat="45.01608" lon="4.34837">
        <ele>1016</ele>
        <time>2014-07-11T11:05:03Z</time>
      </trkpt>
      <trkpt lat="45.01598" lon="4.34812">
        <ele>1015</ele>
        <time>2014-07-11T11:05:05Z</time>
      </trkpt>
      <trkpt lat="45.01585" lon="4.34784">
        <ele>1015</ele>
        <time>2014-07-11T11:05:08Z</time>
      </trkpt>
      <trkpt lat="45.01575" lon="4.34773">
        <ele>1016</ele>
        <time>2014-07-11T11:05:10Z</time>
      </trkpt>
      <trkpt lat="45.01562" lon="4.34705">
        <ele>1021</ele>
        <time>2014-07-11T11:05:24Z</time>
      </trkpt>
      <trkpt lat="45.01544" lon="4.34665">
        <ele>1026</ele>
        <time>2014-07-11T11:05:36Z</time>
      </trkpt>
      <trkpt lat="45.01536" lon="4.34603">
        <ele>1029</ele>
        <time>2014-07-11T11:05:53Z</time>
      </trkpt>
      <trkpt lat="45.01546" lon="4.34548">
        <ele>1032</ele>
        <time>2014-07-11T11:06:12Z</time>
      </trkpt>
      <trkpt lat="45.01541" lon="4.34467">
        <ele>1035</ele>
        <time>2014-07-11T11:06:36Z</time>
      </trkpt>
      <trkpt lat="45.0151" lon="4.3438">
        <ele>1038</ele>
        <time>2014-07-11T11:07:03Z</time>
      </trkpt>
      <trkpt lat="45.01476" lon="4.3429">
        <ele>1042</ele>
        <time>2014-07-11T11:07:29Z</time>
      </trkpt>
      <trkpt lat="45.01424" lon="4.34107">
        <ele>1046</ele>
        <time>2014-07-11T11:08:09Z</time>
      </trkpt>
      <trkpt lat="45.01412" lon="4.34064">
        <ele>1046</ele>
        <time>2014-07-11T11:08:17Z</time>
      </trkpt>
      <trkpt lat="45.01322" lon="4.33943">
        <ele>1043</ele>
        <time>2014-07-11T11:08:42Z</time>
      </trkpt>
      <trkpt lat="45.01271" lon="4.33855">
        <ele>1044</ele>
        <time>2014-07-11T11:09:00Z</time>
      </trkpt>
      <trkpt lat="45.01264" lon="4.33837">
        <ele>1043</ele>
        <time>2014-07-11T11:09:03Z</time>
      </trkpt>
      <trkpt lat="45.01263" lon="4.33831">
        <ele>1044</ele>
        <time>2014-07-11T11:09:04Z</time>
      </trkpt>
      <trkpt lat="45.01237" lon="4.33729">
        <ele>1042</ele>
        <time>2014-07-11T11:09:21Z</time>
      </trkpt>
      <trkpt lat="45.012" lon="4.33575">
        <ele>1042</ele>
        <time>2014-07-11T11:09:48Z</time>
      </trkpt>
      <trkpt lat="45.01151" lon="4.33476">
        <ele>1048</ele>
        <time>2014-07-11T11:10:15Z</time>
      </trkpt>
      <trkpt lat="45.01142" lon="4.33414">
        <ele>1053</ele>
        <time>2014-07-11T11:10:39Z</time>
      </trkpt>
      <trkpt lat="45.01118" lon="4.33365">
        <ele>1056</ele>
        <time>2014-07-11T11:11:04Z</time>
      </trkpt>
      <trkpt lat="45.01106" lon="4.33321">
        <ele>1062</ele>
        <time>2014-07-11T11:11:30Z</time>
      </trkpt>
      <trkpt lat="45.01094" lon="4.33292">
        <ele>1063</ele>
        <time>2014-07-11T11:12:03Z</time>
      </trkpt>
      <trkpt lat="45.01089" lon="4.33283">
        <ele>1064</ele>
        <time>2014-07-11T11:13:41Z</time>
      </trkpt>
      <trkpt lat="45.01079" lon="4.33257">
        <ele>1070</ele>
        <time>2014-07-11T11:14:15Z</time>
      </trkpt>
      <trkpt lat="45.01029" lon="4.33236">
        <ele>1075</ele>
        <time>2014-07-11T11:14:50Z</time>
      </trkpt>
      <trkpt lat="45.0098" lon="4.33216">
        <ele>1080</ele>
        <time>2014-07-11T11:15:16Z</time>
      </trkpt>
      <trkpt lat="45.00956" lon="4.33191">
        <ele>1081</ele>
        <time>2014-07-11T11:15:33Z</time>
      </trkpt>
      <trkpt lat="45.00945" lon="4.33184">
        <ele>1082</ele>
        <time>2014-07-11T11:15:39Z</time>
      </trkpt>
      <trkpt lat="45.00875" lon="4.33097">
        <ele>1083</ele>
        <time>2014-07-11T11:16:18Z</time>
      </trkpt>
      <trkpt lat="45.00876" lon="4.33104">
        <ele>1083</ele>
        <time>2014-07-11T11:16:40Z</time>
      </trkpt>
      <trkpt lat="45.00878" lon="4.33105">
        <ele>1083</ele>
        <time>2014-07-11T11:18:00Z</time>
      </trkpt>
      <trkpt lat="45.00857" lon="4.33069">
        <ele>1083</ele>
        <time>2014-07-11T11:18:28Z</time>
      </trkpt>
      <trkpt lat="45.00779" lon="4.32943">
        <ele>1082</ele>
        <time>2014-07-11T11:19:05Z</time>
      </trkpt>
      <trkpt lat="45.00748" lon="4.32872">
        <ele>1077</ele>
        <time>2014-07-11T11:19:19Z</time>
      </trkpt>
      <trkpt lat="45.00739" lon="4.32848">
        <ele>1077</ele>
        <time>2014-07-11T11:19:23Z</time>
      </trkpt>
      <trkpt lat="45.00696" lon="4.32709">
        <ele>1077</ele>
        <time>2014-07-11T11:19:46Z</time>
      </trkpt>
      <trkpt lat="45.00666" lon="4.32611">
        <ele>1078</ele>
        <time>2014-07-11T11:20:12Z</time>
      </trkpt>
      <trkpt lat="45.00617" lon="4.32502">
        <ele>1081</ele>
        <time>2014-07-11T11:20:39Z</time>
      </trkpt>
      <trkpt lat="45.00547" lon="4.32365">
        <ele>1082</ele>
        <time>2014-07-11T11:21:14Z</time>
      </trkpt>
      <trkpt lat="45.00472" lon="4.32223">
        <ele>1083</ele>
        <time>2014-07-11T11:21:51Z</time>
      </trkpt>
      <trkpt lat="45.00379" lon="4.3204">
        <ele>1084</ele>
        <time>2014-07-11T11:22:39Z</time>
      </trkpt>
      <trkpt lat="45.00302" lon="4.31881">
        <ele>1089</ele>
        <time>2014-07-11T11:23:17Z</time>
      </trkpt>
      <trkpt lat="45.00205" lon="4.31666">
        <ele>1092</ele>
        <time>2014-07-11T11:24:00Z</time>
      </trkpt>
      <trkpt lat="45.00155" lon="4.31487">
        <ele>1095</ele>
        <time>2014-07-11T11:24:34Z</time>
      </trkpt>
      <trkpt lat="45.00139" lon="4.31377">
        <ele>1096</ele>
        <time>2014-07-11T11:24:52Z</time>
      </trkpt>
      <trkpt lat="45.00092" lon="4.31149">
        <ele>1098</ele>
        <time>2014-07-11T11:25:26Z</time>
      </trkpt>
      <trkpt lat="45.00066" lon="4.31031">
        <ele>1097</ele>
        <time>2014-07-11T11:25:45Z</time>
      </trkpt>
      <trkpt lat="45.00016" lon="4.30815">
        <ele>1098</ele>
        <time>2014-07-11T11:26:23Z</time>
      </trkpt>
      <trkpt lat="44.99952" lon="4.30711">
        <ele>1099</ele>
        <time>2014-07-11T11:26:44Z</time>
      </trkpt>
      <trkpt lat="44.99886" lon="4.30565">
        <ele>1105</ele>
        <time>2014-07-11T11:27:17Z</time>
      </trkpt>
      <trkpt lat="44.99862" lon="4.30477">
        <ele>1108</ele>
        <time>2014-07-11T11:27:38Z</time>
      </trkpt>
      <trkpt lat="44.99807" lon="4.30439">
        <ele>1112</ele>
        <time>2014-07-11T11:27:57Z</time>
      </trkpt>
      <trkpt lat="44.99777" lon="4.30414">
        <ele>1114</ele>
        <time>2014-07-11T11:28:09Z</time>
      </trkpt>
      <trkpt lat="44.99758" lon="4.30357">
        <ele>1116</ele>
        <time>2014-07-11T11:28:25Z</time>
      </trkpt>
      <trkpt lat="44.99726" lon="4.30261">
        <ele>1126</ele>
        <time>2014-07-11T11:28:54Z</time>
      </trkpt>
      <trkpt lat="44.99697" lon="4.30183">
        <ele>1129</ele>
        <time>2014-07-11T11:29:19Z</time>
      </trkpt>
      <trkpt lat="44.99692" lon="4.30084">
        <ele>1129</ele>
        <time>2014-07-11T11:29:45Z</time>
      </trkpt>
      <trkpt lat="44.9969" lon="4.29956">
        <ele>1126</ele>
        <time>2014-07-11T11:30:06Z</time>
      </trkpt>
      <trkpt lat="44.99684" lon="4.299">
        <ele>1123</ele>
        <time>2014-07-11T11:30:12Z</time>
      </trkpt>
      <trkpt lat="44.99666" lon="4.29869">
        <ele>1126</ele>
        <time>2014-07-11T11:30:16Z</time>
      </trkpt>
      <trkpt lat="44.99647" lon="4.29846">
        <ele>1126</ele>
        <time>2014-07-11T11:30:21Z</time>
      </trkpt>
      <trkpt lat="44.99613" lon="4.29767">
        <ele>1123</ele>
        <time>2014-07-11T11:30:35Z</time>
      </trkpt>
      <trkpt lat="44.9958" lon="4.29727">
        <ele>1123</ele>
        <time>2014-07-11T11:30:45Z</time>
      </trkpt>
      <trkpt lat="44.99548" lon="4.29787">
        <ele>1128</ele>
        <time>2014-07-11T11:31:01Z</time>
      </trkpt>
      <trkpt lat="44.9954" lon="4.2982">
        <ele>1130</ele>
        <time>2014-07-11T11:31:10Z</time>
      </trkpt>
      <trkpt lat="44.99527" lon="4.29872">
        <ele>1134</ele>
        <time>2014-07-11T11:31:22Z</time>
      </trkpt>
      <trkpt lat="44.99516" lon="4.29904">
        <ele>1136</ele>
        <time>2014-07-11T11:31:31Z</time>
      </trkpt>
      <trkpt lat="44.9951" lon="4.29897">
        <ele>1136</ele>
        <time>2014-07-11T11:31:36Z</time>
      </trkpt>
      <trkpt lat="44.99509" lon="4.29892">
        <ele>1135</ele>
        <time>2014-07-11T11:31:37Z</time>
      </trkpt>
      <trkpt lat="44.99454" lon="4.29806">
        <ele>1130</ele>
        <time>2014-07-11T11:32:00Z</time>
      </trkpt>
      <trkpt lat="44.99394" lon="4.29812">
        <ele>1128</ele>
        <time>2014-07-11T11:32:14Z</time>
      </trkpt>
      <trkpt lat="44.99352" lon="4.2974">
        <ele>1122</ele>
        <time>2014-07-11T11:32:28Z</time>
      </trkpt>
      <trkpt lat="44.99308" lon="4.29653">
        <ele>1119</ele>
        <time>2014-07-11T11:32:46Z</time>
      </trkpt>
      <trkpt lat="44.99172" lon="4.29443">
        <ele>1116</ele>
        <time>2014-07-11T11:33:35Z</time>
      </trkpt>
      <trkpt lat="44.9913" lon="4.29395">
        <ele>1117</ele>
        <time>2014-07-11T11:33:49Z</time>
      </trkpt>
      <trkpt lat="44.99082" lon="4.29348">
        <ele>1119</ele>
        <time>2014-07-11T11:34:04Z</time>
      </trkpt>
      <trkpt lat="44.98993" lon="4.29265">
        <ele>1125</ele>
        <time>2014-07-11T11:34:32Z</time>
      </trkpt>
      <trkpt lat="44.98923" lon="4.2916">
        <ele>1129</ele>
        <time>2014-07-11T11:35:01Z</time>
      </trkpt>
      <trkpt lat="44.98891" lon="4.29109">
        <ele>1129</ele>
        <time>2014-07-11T11:35:15Z</time>
      </trkpt>
      <trkpt lat="44.98851" lon="4.29054">
        <ele>1130</ele>
        <time>2014-07-11T11:35:30Z</time>
      </trkpt>
      <trkpt lat="44.98761" lon="4.28915">
        <ele>1128</ele>
        <time>2014-07-11T11:36:15Z</time>
      </trkpt>
      <trkpt lat="44.98658" lon="4.28759">
        <ele>1129</ele>
        <time>2014-07-11T11:37:05Z</time>
      </trkpt>
      <trkpt lat="44.98576" lon="4.28613">
        <ele>1130</ele>
        <time>2014-07-11T11:37:43Z</time>
      </trkpt>
      <trkpt lat="44.98552" lon="4.28576">
        <ele>1129</ele>
        <time>2014-07-11T11:38:00Z</time>
      </trkpt>
      <trkpt lat="44.98517" lon="4.28536">
        <ele>1129</ele>
        <time>2014-07-11T11:38:25Z</time>
      </trkpt>
      <trkpt lat="44.98497" lon="4.28427">
        <ele>1132</ele>
        <time>2014-07-11T11:38:58Z</time>
      </trkpt>
      <trkpt lat="44.98482" lon="4.28401">
        <ele>1131</ele>
        <time>2014-07-11T11:39:25Z</time>
      </trkpt>
      <trkpt lat="44.98443" lon="4.28318">
        <ele>1128</ele>
        <time>2014-07-11T11:40:12Z</time>
      </trkpt>
      <trkpt lat="44.98405" lon="4.28249">
        <ele>1127</ele>
        <time>2014-07-11T11:40:25Z</time>
      </trkpt>
      <trkpt lat="44.9836" lon="4.28159">
        <ele>1126</ele>
        <time>2014-07-11T11:40:51Z</time>
      </trkpt>
      <trkpt lat="44.98315" lon="4.28054">
        <ele>1131</ele>
        <time>2014-07-11T11:41:19Z</time>
      </trkpt>
      <trkpt lat="44.98296" lon="4.27974">
        <ele>1133</ele>
        <time>2014-07-11T11:41:39Z</time>
      </trkpt>
      <trkpt lat="44.98307" lon="4.27868">
        <ele>1137</ele>
        <time>2014-07-11T11:42:07Z</time>
      </trkpt>
      <trkpt lat="44.98318" lon="4.27775">
        <ele>1140</ele>
        <time>2014-07-11T11:42:34Z</time>
      </trkpt>
      <trkpt lat="44.9832" lon="4.27773">
        <ele>1140</ele>
        <time>2014-07-11T11:42:35Z</time>
      </trkpt>
      <trkpt lat="44.98322" lon="4.27764">
        <ele>1140</ele>
        <time>2014-07-11T11:42:38Z</time>
      </trkpt>
      <trkpt lat="44.98343" lon="4.27598">
        <ele>1136</ele>
        <time>2014-07-11T11:43:22Z</time>
      </trkpt>
      <trkpt lat="44.98343" lon="4.27487">
        <ele>1136</ele>
        <time>2014-07-11T11:43:43Z</time>
      </trkpt>
      <trkpt lat="44.98349" lon="4.27465">
        <ele>1135</ele>
        <time>2014-07-11T11:43:47Z</time>
      </trkpt>
      <trkpt lat="44.98431" lon="4.27337">
        <ele>1136</ele>
        <time>2014-07-11T11:44:18Z</time>
      </trkpt>
      <trkpt lat="44.9854" lon="4.27208">
        <ele>1135</ele>
        <time>2014-07-11T11:45:02Z</time>
      </trkpt>
      <trkpt lat="44.98615" lon="4.2709">
        <ele>1135</ele>
        <time>2014-07-11T11:45:31Z</time>
      </trkpt>
      <trkpt lat="44.98635" lon="4.27052">
        <ele>1136</ele>
        <time>2014-07-11T11:45:39Z</time>
      </trkpt>
      <trkpt lat="44.9864" lon="4.27043">
        <ele>1136</ele>
        <time>2014-07-11T11:45:41Z</time>
      </trkpt>
      <trkpt lat="44.98681" lon="4.27">
        <ele>1135</ele>
        <time>2014-07-11T11:45:55Z</time>
      </trkpt>
      <trkpt lat="44.98727" lon="4.26888">
        <ele>1135</ele>
        <time>2014-07-11T11:46:21Z</time>
      </trkpt>
      <trkpt lat="44.9877" lon="4.26761">
        <ele>1134</ele>
        <time>2014-07-11T11:46:54Z</time>
      </trkpt>
      <trkpt lat="44.98784" lon="4.26591">
        <ele>1137</ele>
        <time>2014-07-11T11:47:28Z</time>
      </trkpt>
      <trkpt lat="44.98769" lon="4.26438">
        <ele>1137</ele>
        <time>2014-07-11T11:48:01Z</time>
      </trkpt>
      <trkpt lat="44.98752" lon="4.26317">
        <ele>1136</ele>
        <time>2014-07-11T11:48:27Z</time>
      </trkpt>
      <trkpt lat="44.98736" lon="4.26284">
        <ele>1138</ele>
        <time>2014-07-11T11:48:41Z</time>
      </trkpt>
      <trkpt lat="44.98727" lon="4.26282">
        <ele>1138</ele>
        <time>2014-07-11T11:48:53Z</time>
      </trkpt>
      <trkpt lat="44.98728" lon="4.2628">
        <ele>1138</ele>
        <time>2014-07-11T11:49:28Z</time>
      </trkpt>
      <trkpt lat="44.98726" lon="4.26277">
        <ele>1138</ele>
        <time>2014-07-11T11:50:59Z</time>
      </trkpt>
      <trkpt lat="44.98715" lon="4.26219">
        <ele>1134</ele>
        <time>2014-07-11T11:51:16Z</time>
      </trkpt>
      <trkpt lat="44.98713" lon="4.26211">
        <ele>1134</ele>
        <time>2014-07-11T11:51:17Z</time>
      </trkpt>
      <trkpt lat="44.98714" lon="4.26174">
        <ele>1133</ele>
        <time>2014-07-11T11:51:21Z</time>
      </trkpt>
      <trkpt lat="44.9872" lon="4.26135">
        <ele>1128</ele>
        <time>2014-07-11T11:51:25Z</time>
      </trkpt>
      <trkpt lat="44.98727" lon="4.26084">
        <ele>1126</ele>
        <time>2014-07-11T11:51:30Z</time>
      </trkpt>
      <trkpt lat="44.98736" lon="4.26032">
        <ele>1122</ele>
        <time>2014-07-11T11:51:35Z</time>
      </trkpt>
      <trkpt lat="44.98745" lon="4.25983">
        <ele>1119</ele>
        <time>2014-07-11T11:51:40Z</time>
      </trkpt>
      <trkpt lat="44.98747" lon="4.25976">
        <ele>1119</ele>
        <time>2014-07-11T11:51:41Z</time>
      </trkpt>
      <trkpt lat="44.98747" lon="4.25939">
        <ele>1118</ele>
        <time>2014-07-11T11:51:49Z</time>
      </trkpt>
      <trkpt lat="44.98735" lon="4.25873">
        <ele>1116</ele>
        <time>2014-07-11T11:51:58Z</time>
      </trkpt>
      <trkpt lat="44.98768" lon="4.25743">
        <ele>1111</ele>
        <time>2014-07-11T11:52:16Z</time>
      </trkpt>
      <trkpt lat="44.98782" lon="4.25701">
        <ele>1112</ele>
        <time>2014-07-11T11:52:23Z</time>
      </trkpt>
      <trkpt lat="44.98785" lon="4.2562">
        <ele>1115</ele>
        <time>2014-07-11T11:52:38Z</time>
      </trkpt>
      <trkpt lat="44.98784" lon="4.25505">
        <ele>1119</ele>
        <time>2014-07-11T11:53:05Z</time>
      </trkpt>
      <trkpt lat="44.98789" lon="4.25409">
        <ele>1127</ele>
        <time>2014-07-11T11:53:30Z</time>
      </trkpt>
      <trkpt lat="44.98808" lon="4.2533">
        <ele>1131</ele>
        <time>2014-07-11T11:53:53Z</time>
      </trkpt>
      <trkpt lat="44.98823" lon="4.25282">
        <ele>1133</ele>
        <time>2014-07-11T11:54:06Z</time>
      </trkpt>
      <trkpt lat="44.98841" lon="4.25222">
        <ele>1135</ele>
        <time>2014-07-11T11:54:23Z</time>
      </trkpt>
      <trkpt lat="44.98866" lon="4.25181">
        <ele>1136</ele>
        <time>2014-07-11T11:54:38Z</time>
      </trkpt>
      <trkpt lat="44.98878" lon="4.25151">
        <ele>1139</ele>
        <time>2014-07-11T11:54:47Z</time>
      </trkpt>
      <trkpt lat="44.98892" lon="4.25106">
        <ele>1140</ele>
        <time>2014-07-11T11:55:01Z</time>
      </trkpt>
      <trkpt lat="44.98847" lon="4.25062">
        <ele>1142</ele>
        <time>2014-07-11T11:55:26Z</time>
      </trkpt>
      <trkpt lat="44.9884" lon="4.24983">
        <ele>1146</ele>
        <time>2014-07-11T11:55:52Z</time>
      </trkpt>
      <trkpt lat="44.98833" lon="4.24875">
        <ele>1151</ele>
        <time>2014-07-11T11:56:23Z</time>
      </trkpt>
      <trkpt lat="44.98829" lon="4.24779">
        <ele>1154</ele>
        <time>2014-07-11T11:56:51Z</time>
      </trkpt>
      <trkpt lat="44.98832" lon="4.24633">
        <ele>1157</ele>
        <time>2014-07-11T11:57:31Z</time>
      </trkpt>
      <trkpt lat="44.98814" lon="4.24581">
        <ele>1157</ele>
        <time>2014-07-11T11:58:03Z</time>
      </trkpt>
      <trkpt lat="44.98808" lon="4.24548">
        <ele>1157</ele>
        <time>2014-07-11T11:58:15Z</time>
      </trkpt>
      <trkpt lat="44.98796" lon="4.24503">
        <ele>1156</ele>
        <time>2014-07-11T11:58:22Z</time>
      </trkpt>
      <trkpt lat="44.98789" lon="4.24475">
        <ele>1153</ele>
        <time>2014-07-11T11:58:27Z</time>
      </trkpt>
      <trkpt lat="44.98785" lon="4.24409">
        <ele>1148</ele>
        <time>2014-07-11T11:58:36Z</time>
      </trkpt>
      <trkpt lat="44.98782" lon="4.24374">
        <ele>1147</ele>
        <time>2014-07-11T11:58:40Z</time>
      </trkpt>
      <trkpt lat="44.98787" lon="4.24292">
        <ele>1138</ele>
        <time>2014-07-11T11:58:49Z</time>
      </trkpt>
      <trkpt lat="44.98797" lon="4.24256">
        <ele>1134</ele>
        <time>2014-07-11T11:58:54Z</time>
      </trkpt>
      <trkpt lat="44.98794" lon="4.24214">
        <ele>1125</ele>
        <time>2014-07-11T11:58:59Z</time>
      </trkpt>
      <trkpt lat="44.98791" lon="4.24172">
        <ele>1122</ele>
        <time>2014-07-11T11:59:04Z</time>
      </trkpt>
      <trkpt lat="44.9878" lon="4.24125">
        <ele>1113</ele>
        <time>2014-07-11T11:59:09Z</time>
      </trkpt>
      <trkpt lat="44.98767" lon="4.24093">
        <ele>1111</ele>
        <time>2014-07-11T11:59:13Z</time>
      </trkpt>
      <trkpt lat="44.98761" lon="4.24073">
        <ele>1106</ele>
        <time>2014-07-11T11:59:16Z</time>
      </trkpt>
      <trkpt lat="44.98753" lon="4.24046">
        <ele>1102</ele>
        <time>2014-07-11T11:59:20Z</time>
      </trkpt>
      <trkpt lat="44.98753" lon="4.2401">
        <ele>1100</ele>
        <time>2014-07-11T11:59:24Z</time>
      </trkpt>
      <trkpt lat="44.98758" lon="4.23979">
        <ele>1095</ele>
        <time>2014-07-11T11:59:28Z</time>
      </trkpt>
      <trkpt lat="44.98759" lon="4.23969">
        <ele>1094</ele>
        <time>2014-07-11T11:59:30Z</time>
      </trkpt>
      <trkpt lat="44.98762" lon="4.23932">
        <ele>1093</ele>
        <time>2014-07-11T11:59:54Z</time>
      </trkpt>
      <trkpt lat="44.98763" lon="4.2391">
        <ele>1091</ele>
        <time>2014-07-11T12:00:10Z</time>
      </trkpt>
      <trkpt lat="44.98769" lon="4.2387">
        <ele>1088</ele>
        <time>2014-07-11T12:00:15Z</time>
      </trkpt>
      <trkpt lat="44.98772" lon="4.2385">
        <ele>1088</ele>
        <time>2014-07-11T12:00:17Z</time>
      </trkpt>
      <trkpt lat="44.98773" lon="4.23829">
        <ele>1086</ele>
        <time>2014-07-11T12:00:19Z</time>
      </trkpt>
      <trkpt lat="44.98783" lon="4.23771">
        <ele>1085</ele>
        <time>2014-07-11T12:00:26Z</time>
      </trkpt>
      <trkpt lat="44.98784" lon="4.23685">
        <ele>1086</ele>
        <time>2014-07-11T12:00:43Z</time>
      </trkpt>
      <trkpt lat="44.98786" lon="4.23566">
        <ele>1090</ele>
        <time>2014-07-11T12:01:11Z</time>
      </trkpt>
      <trkpt lat="44.98793" lon="4.23455">
        <ele>1094</ele>
        <time>2014-07-11T12:01:37Z</time>
      </trkpt>
      <trkpt lat="44.9878" lon="4.23446">
        <ele>1094</ele>
        <time>2014-07-11T12:01:43Z</time>
      </trkpt>
      <trkpt lat="44.98743" lon="4.23425">
        <ele>1098</ele>
        <time>2014-07-11T12:02:01Z</time>
      </trkpt>
      <trkpt lat="44.98732" lon="4.23365">
        <ele>1102</ele>
        <time>2014-07-11T12:02:21Z</time>
      </trkpt>
      <trkpt lat="44.98716" lon="4.23279">
        <ele>1107</ele>
        <time>2014-07-11T12:02:48Z</time>
      </trkpt>
      <trkpt lat="44.9871" lon="4.23241">
        <ele>1111</ele>
        <time>2014-07-11T12:03:01Z</time>
      </trkpt>
      <trkpt lat="44.98709" lon="4.23203">
        <ele>1112</ele>
        <time>2014-07-11T12:03:13Z</time>
      </trkpt>
      <trkpt lat="44.98702" lon="4.23138">
        <ele>1119</ele>
        <time>2014-07-11T12:03:38Z</time>
      </trkpt>
      <trkpt lat="44.98701" lon="4.23077">
        <ele>1129</ele>
        <time>2014-07-11T12:04:03Z</time>
      </trkpt>
      <trkpt lat="44.98696" lon="4.23036">
        <ele>1131</ele>
        <time>2014-07-11T12:04:23Z</time>
      </trkpt>
      <trkpt lat="44.98697" lon="4.23026">
        <ele>1132</ele>
        <time>2014-07-11T12:04:28Z</time>
      </trkpt>
      <trkpt lat="44.98709" lon="4.23014">
        <ele>1133</ele>
        <time>2014-07-11T12:04:38Z</time>
      </trkpt>
      <trkpt lat="44.98711" lon="4.23012">
        <ele>1133</ele>
        <time>2014-07-11T12:04:40Z</time>
      </trkpt>
      <trkpt lat="44.987" lon="4.2297">
        <ele>1144</ele>
        <time>2014-07-11T12:05:07Z</time>
      </trkpt>
      <trkpt lat="44.98685" lon="4.22948">
        <ele>1147</ele>
        <time>2014-07-11T12:05:22Z</time>
      </trkpt>
      <trkpt lat="44.98678" lon="4.22912">
        <ele>1157</ele>
        <time>2014-07-11T12:05:41Z</time>
      </trkpt>
      <trkpt lat="44.98672" lon="4.2289">
        <ele>1160</ele>
        <time>2014-07-11T12:05:53Z</time>
      </trkpt>
      <trkpt lat="44.98667" lon="4.22868">
        <ele>1163</ele>
        <time>2014-07-11T12:06:04Z</time>
      </trkpt>
      <trkpt lat="44.98664" lon="4.22856">
        <ele>1160</ele>
        <time>2014-07-11T12:06:10Z</time>
      </trkpt>
      <trkpt lat="44.9866" lon="4.22841">
        <ele>1163</ele>
        <time>2014-07-11T12:06:18Z</time>
      </trkpt>
      <trkpt lat="44.98649" lon="4.22814">
        <ele>1168</ele>
        <time>2014-07-11T12:06:32Z</time>
      </trkpt>
      <trkpt lat="44.98633" lon="4.22785">
        <ele>1170</ele>
        <time>2014-07-11T12:06:48Z</time>
      </trkpt>
      <trkpt lat="44.98629" lon="4.22755">
        <ele>1172</ele>
        <time>2014-07-11T12:07:02Z</time>
      </trkpt>
      <trkpt lat="44.98634" lon="4.22724">
        <ele>1178</ele>
        <time>2014-07-11T12:07:15Z</time>
      </trkpt>
      <trkpt lat="44.98641" lon="4.22679">
        <ele>1179</ele>
        <time>2014-07-11T12:07:32Z</time>
      </trkpt>
      <trkpt lat="44.9864" lon="4.22669">
        <ele>1179</ele>
        <time>2014-07-11T12:07:40Z</time>
      </trkpt>
      <trkpt lat="44.98634" lon="4.22633">
        <ele>1180</ele>
        <time>2014-07-11T12:07:56Z</time>
      </trkpt>
      <trkpt lat="44.98625" lon="4.22602">
        <ele>1180</ele>
        <time>2014-07-11T12:08:10Z</time>
      </trkpt>
      <trkpt lat="44.98626" lon="4.226">
        <ele>1180</ele>
        <time>2014-07-11T12:08:11Z</time>
      </trkpt>
      <trkpt lat="44.98627" lon="4.22599">
        <ele>1180</ele>
        <time>2014-07-11T12:08:12Z</time>
      </trkpt>
      <trkpt lat="44.98626" lon="4.22606">
        <ele>1180</ele>
        <time>2014-07-11T12:08:21Z</time>
      </trkpt>
      <trkpt lat="44.98631" lon="4.22604">
        <ele>1180</ele>
        <time>2014-07-11T12:08:29Z</time>
      </trkpt>
      <trkpt lat="44.98604" lon="4.22598">
        <ele>1181</ele>
        <time>2014-07-11T12:08:50Z</time>
      </trkpt>
      <trkpt lat="44.98605" lon="4.22598">
        <ele>1181</ele>
        <time>2014-07-11T12:09:44Z</time>
      </trkpt>
      <trkpt lat="44.98603" lon="4.22601">
        <ele>1181</ele>
        <time>2014-07-11T12:11:57Z</time>
      </trkpt>
      <trkpt lat="44.98603" lon="4.22601">
        <ele>1181</ele>
        <time>2014-07-11T12:11:58Z</time>
      </trkpt>
      <trkpt lat="44.98523" lon="4.22621">
        <ele>1182</ele>
        <time>2014-07-11T12:12:30Z</time>
      </trkpt>
      <trkpt lat="44.98505" lon="4.22627">
        <ele>1183</ele>
        <time>2014-07-11T12:12:39Z</time>
      </trkpt>
      <trkpt lat="44.98503" lon="4.22626">
        <ele>1183</ele>
        <time>2014-07-11T12:12:40Z</time>
      </trkpt>
      <trkpt lat="44.98476" lon="4.22595">
        <ele>1185</ele>
        <time>2014-07-11T12:12:56Z</time>
      </trkpt>
      <trkpt lat="44.98423" lon="4.22545">
        <ele>1181</ele>
        <time>2014-07-11T12:13:17Z</time>
      </trkpt>
      <trkpt lat="44.98399" lon="4.22515">
        <ele>1183</ele>
        <time>2014-07-11T12:13:23Z</time>
      </trkpt>
      <trkpt lat="44.98377" lon="4.22492">
        <ele>1177</ele>
        <time>2014-07-11T12:13:27Z</time>
      </trkpt>
      <trkpt lat="44.98323" lon="4.22441">
        <ele>1181</ele>
        <time>2014-07-11T12:13:36Z</time>
      </trkpt>
      <trkpt lat="44.98291" lon="4.22384">
        <ele>1175</ele>
        <time>2014-07-11T12:13:46Z</time>
      </trkpt>
      <trkpt lat="44.98256" lon="4.22326">
        <ele>1173</ele>
        <time>2014-07-11T12:14:03Z</time>
      </trkpt>
      <trkpt lat="44.98173" lon="4.22202">
        <ele>1165</ele>
        <time>2014-07-11T12:14:34Z</time>
      </trkpt>
      <trkpt lat="44.98149" lon="4.22174">
        <ele>1170</ele>
        <time>2014-07-11T12:14:44Z</time>
      </trkpt>
      <trkpt lat="44.98133" lon="4.2216">
        <ele>1160</ele>
        <time>2014-07-11T12:14:48Z</time>
      </trkpt>
      <trkpt lat="44.98103" lon="4.22135">
        <ele>1159</ele>
        <time>2014-07-11T12:14:54Z</time>
      </trkpt>
      <trkpt lat="44.98071" lon="4.2211">
        <ele>1159</ele>
        <time>2014-07-11T12:14:59Z</time>
      </trkpt>
      <trkpt lat="44.98042" lon="4.22093">
        <ele>1159</ele>
        <time>2014-07-11T12:15:03Z</time>
      </trkpt>
      <trkpt lat="44.98036" lon="4.22091">
        <ele>1159</ele>
        <time>2014-07-11T12:15:04Z</time>
      </trkpt>
      <trkpt lat="44.98019" lon="4.22085">
        <ele>1157</ele>
        <time>2014-07-11T12:15:07Z</time>
      </trkpt>
      <trkpt lat="44.98001" lon="4.22079">
        <ele>1151</ele>
        <time>2014-07-11T12:15:10Z</time>
      </trkpt>
      <trkpt lat="44.97982" lon="4.22072">
        <ele>1146</ele>
        <time>2014-07-11T12:15:13Z</time>
      </trkpt>
      <trkpt lat="44.97972" lon="4.22067">
        <ele>1144</ele>
        <time>2014-07-11T12:15:15Z</time>
      </trkpt>
      <trkpt lat="44.97952" lon="4.22052">
        <ele>1142</ele>
        <time>2014-07-11T12:15:19Z</time>
      </trkpt>
      <trkpt lat="44.97947" lon="4.22049">
        <ele>1141</ele>
        <time>2014-07-11T12:15:20Z</time>
      </trkpt>
      <trkpt lat="44.9793" lon="4.22046">
        <ele>1140</ele>
        <time>2014-07-11T12:15:23Z</time>
      </trkpt>
      <trkpt lat="44.97917" lon="4.22035">
        <ele>1139</ele>
        <time>2014-07-11T12:15:27Z</time>
      </trkpt>
      <trkpt lat="44.97912" lon="4.22027">
        <ele>1135</ele>
        <time>2014-07-11T12:15:29Z</time>
      </trkpt>
      <trkpt lat="44.97891" lon="4.22011">
        <ele>1134</ele>
        <time>2014-07-11T12:15:34Z</time>
      </trkpt>
      <trkpt lat="44.97886" lon="4.22009">
        <ele>1134</ele>
        <time>2014-07-11T12:15:35Z</time>
      </trkpt>
      <trkpt lat="44.97843" lon="4.21992">
        <ele>1127</ele>
        <time>2014-07-11T12:15:43Z</time>
      </trkpt>
      <trkpt lat="44.97838" lon="4.21989">
        <ele>1127</ele>
        <time>2014-07-11T12:15:44Z</time>
      </trkpt>
      <trkpt lat="44.97781" lon="4.2196">
        <ele>1126</ele>
        <time>2014-07-11T12:16:00Z</time>
      </trkpt>
      <trkpt lat="44.97772" lon="4.2196">
        <ele>1126</ele>
        <time>2014-07-11T12:16:05Z</time>
      </trkpt>
      <trkpt lat="44.97733" lon="4.21937">
        <ele>1129</ele>
        <time>2014-07-11T12:16:25Z</time>
      </trkpt>
      <trkpt lat="44.97637" lon="4.21844">
        <ele>1126</ele>
        <time>2014-07-11T12:16:58Z</time>
      </trkpt>
      <trkpt lat="44.9763" lon="4.21833">
        <ele>1123</ele>
        <time>2014-07-11T12:17:00Z</time>
      </trkpt>
      <trkpt lat="44.97583" lon="4.21791">
        <ele>1125</ele>
        <time>2014-07-11T12:17:08Z</time>
      </trkpt>
      <trkpt lat="44.97579" lon="4.21784">
        <ele>1125</ele>
        <time>2014-07-11T12:17:09Z</time>
      </trkpt>
      <trkpt lat="44.97571" lon="4.2177">
        <ele>1125</ele>
        <time>2014-07-11T12:17:11Z</time>
      </trkpt>
      <trkpt lat="44.97535" lon="4.2175">
        <ele>1126</ele>
        <time>2014-07-11T12:17:19Z</time>
      </trkpt>
      <trkpt lat="44.97497" lon="4.21744">
        <ele>1128</ele>
        <time>2014-07-11T12:17:30Z</time>
      </trkpt>
      <trkpt lat="44.97461" lon="4.21705">
        <ele>1132</ele>
        <time>2014-07-11T12:17:43Z</time>
      </trkpt>
      <trkpt lat="44.97434" lon="4.21673">
        <ele>1134</ele>
        <time>2014-07-11T12:17:55Z</time>
      </trkpt>
      <trkpt lat="44.97371" lon="4.21589">
        <ele>1140</ele>
        <time>2014-07-11T12:18:28Z</time>
      </trkpt>
      <trkpt lat="44.97324" lon="4.21524">
        <ele>1145</ele>
        <time>2014-07-11T12:18:53Z</time>
      </trkpt>
      <trkpt lat="44.97286" lon="4.21501">
        <ele>1146</ele>
        <time>2014-07-11T12:19:08Z</time>
      </trkpt>
      <trkpt lat="44.97264" lon="4.21488">
        <ele>1149</ele>
        <time>2014-07-11T12:19:20Z</time>
      </trkpt>
      <trkpt lat="44.97216" lon="4.21473">
        <ele>1153</ele>
        <time>2014-07-11T12:19:41Z</time>
      </trkpt>
      <trkpt lat="44.97157" lon="4.21424">
        <ele>1159</ele>
        <time>2014-07-11T12:20:12Z</time>
      </trkpt>
      <trkpt lat="44.97145" lon="4.2141">
        <ele>1162</ele>
        <time>2014-07-11T12:20:27Z</time>
      </trkpt>
      <trkpt lat="44.97165" lon="4.21442">
        <ele>1158</ele>
        <time>2014-07-11T12:20:37Z</time>
      </trkpt>
      <trkpt lat="44.97167" lon="4.21444">
        <ele>1156</ele>
        <time>2014-07-11T12:20:39Z</time>
      </trkpt>
      <trkpt lat="44.97168" lon="4.21443">
        <ele>1156</ele>
        <time>2014-07-11T12:20:41Z</time>
      </trkpt>
      <trkpt lat="44.97137" lon="4.21399">
        <ele>1163</ele>
        <time>2014-07-11T12:21:00Z</time>
      </trkpt>
      <trkpt lat="44.97136" lon="4.21397">
        <ele>1163</ele>
        <time>2014-07-11T12:21:01Z</time>
      </trkpt>
      <trkpt lat="44.97098" lon="4.21312">
        <ele>1168</ele>
        <time>2014-07-11T12:21:32Z</time>
      </trkpt>
      <trkpt lat="44.96961" lon="4.21182">
        <ele>1164</ele>
        <time>2014-07-11T12:22:24Z</time>
      </trkpt>
      <trkpt lat="44.96945" lon="4.21132">
        <ele>1166</ele>
        <time>2014-07-11T12:22:35Z</time>
      </trkpt>
      <trkpt lat="44.9686" lon="4.21084">
        <ele>1166</ele>
        <time>2014-07-11T12:23:02Z</time>
      </trkpt>
      <trkpt lat="44.96792" lon="4.21144">
        <ele>1167</ele>
        <time>2014-07-11T12:23:25Z</time>
      </trkpt>
      <trkpt lat="44.9665" lon="4.21272">
        <ele>1173</ele>
        <time>2014-07-11T12:24:13Z</time>
      </trkpt>
      <trkpt lat="44.9655" lon="4.2135">
        <ele>1177</ele>
        <time>2014-07-11T12:24:47Z</time>
      </trkpt>
      <trkpt lat="44.96459" lon="4.21438">
        <ele>1181</ele>
        <time>2014-07-11T12:25:20Z</time>
      </trkpt>
      <trkpt lat="44.96397" lon="4.21489">
        <ele>1188</ele>
        <time>2014-07-11T12:25:38Z</time>
      </trkpt>
      <trkpt lat="44.96379" lon="4.21488">
        <ele>1190</ele>
        <time>2014-07-11T12:25:42Z</time>
      </trkpt>
      <trkpt lat="44.96363" lon="4.21482">
        <ele>1192</ele>
        <time>2014-07-11T12:25:47Z</time>
      </trkpt>
      <trkpt lat="44.96347" lon="4.21486">
        <ele>1193</ele>
        <time>2014-07-11T12:25:54Z</time>
      </trkpt>
      <trkpt lat="44.96317" lon="4.21512">
        <ele>1197</ele>
        <time>2014-07-11T12:26:14Z</time>
      </trkpt>
      <trkpt lat="44.96277" lon="4.21551">
        <ele>1200</ele>
        <time>2014-07-11T12:26:41Z</time>
      </trkpt>
      <trkpt lat="44.9624" lon="4.21578">
        <ele>1207</ele>
        <time>2014-07-11T12:27:06Z</time>
      </trkpt>
      <trkpt lat="44.96213" lon="4.21582">
        <ele>1211</ele>
        <time>2014-07-11T12:27:21Z</time>
      </trkpt>
      <trkpt lat="44.96189" lon="4.21581">
        <ele>1213</ele>
        <time>2014-07-11T12:27:35Z</time>
      </trkpt>
      <trkpt lat="44.96136" lon="4.21577">
        <ele>1220</ele>
        <time>2014-07-11T12:28:08Z</time>
      </trkpt>
      <trkpt lat="44.96129" lon="4.21575">
        <ele>1221</ele>
        <time>2014-07-11T12:28:12Z</time>
      </trkpt>
      <trkpt lat="44.96128" lon="4.21574">
        <ele>1221</ele>
        <time>2014-07-11T12:28:13Z</time>
      </trkpt>
      <trkpt lat="44.96118" lon="4.21551">
        <ele>1222</ele>
        <time>2014-07-11T12:28:24Z</time>
      </trkpt>
      <trkpt lat="44.96115" lon="4.21521">
        <ele>1224</ele>
        <time>2014-07-11T12:28:37Z</time>
      </trkpt>
      <trkpt lat="44.96111" lon="4.21468">
        <ele>1231</ele>
        <time>2014-07-11T12:29:00Z</time>
      </trkpt>
      <trkpt lat="44.9611" lon="4.21463">
        <ele>1231</ele>
        <time>2014-07-11T12:29:02Z</time>
      </trkpt>
      <trkpt lat="44.96103" lon="4.21396">
        <ele>1237</ele>
        <time>2014-07-11T12:29:29Z</time>
      </trkpt>
      <trkpt lat="44.96097" lon="4.21345">
        <ele>1240</ele>
        <time>2014-07-11T12:29:46Z</time>
      </trkpt>
      <trkpt lat="44.96069" lon="4.21359">
        <ele>1247</ele>
        <time>2014-07-11T12:30:06Z</time>
      </trkpt>
      <trkpt lat="44.95976" lon="4.21465">
        <ele>1252</ele>
        <time>2014-07-11T12:31:12Z</time>
      </trkpt>
      <trkpt lat="44.95964" lon="4.21478">
        <ele>1252</ele>
        <time>2014-07-11T12:31:19Z</time>
      </trkpt>
      <trkpt lat="44.95943" lon="4.21504">
        <ele>1246</ele>
        <time>2014-07-11T12:31:35Z</time>
      </trkpt>
      <trkpt lat="44.95876" lon="4.2158">
        <ele>1256</ele>
        <time>2014-07-11T12:32:09Z</time>
      </trkpt>
      <trkpt lat="44.95787" lon="4.2173">
        <ele>1251</ele>
        <time>2014-07-11T12:32:54Z</time>
      </trkpt>
      <trkpt lat="44.95765" lon="4.21766">
        <ele>1249</ele>
        <time>2014-07-11T12:33:07Z</time>
      </trkpt>
      <trkpt lat="44.95722" lon="4.21831">
        <ele>1259</ele>
        <time>2014-07-11T12:33:33Z</time>
      </trkpt>
      <trkpt lat="44.95659" lon="4.21899">
        <ele>1265</ele>
        <time>2014-07-11T12:34:14Z</time>
      </trkpt>
      <trkpt lat="44.95637" lon="4.21932">
        <ele>1261</ele>
        <time>2014-07-11T12:34:32Z</time>
      </trkpt>
      <trkpt lat="44.9559" lon="4.22021">
        <ele>1258</ele>
        <time>2014-07-11T12:34:56Z</time>
      </trkpt>
      <trkpt lat="44.95593" lon="4.22059">
        <ele>1258</ele>
        <time>2014-07-11T12:35:04Z</time>
      </trkpt>
      <trkpt lat="44.95645" lon="4.22117">
        <ele>1255</ele>
        <time>2014-07-11T12:35:21Z</time>
      </trkpt>
      <trkpt lat="44.95664" lon="4.22212">
        <ele>1262</ele>
        <time>2014-07-11T12:35:42Z</time>
      </trkpt>
      <trkpt lat="44.95662" lon="4.22233">
        <ele>1262</ele>
        <time>2014-07-11T12:35:47Z</time>
      </trkpt>
      <trkpt lat="44.95657" lon="4.22293">
        <ele>1265</ele>
        <time>2014-07-11T12:36:04Z</time>
      </trkpt>
      <trkpt lat="44.95626" lon="4.22316">
        <ele>1267</ele>
        <time>2014-07-11T12:36:21Z</time>
      </trkpt>
      <trkpt lat="44.95612" lon="4.22318">
        <ele>1268</ele>
        <time>2014-07-11T12:36:26Z</time>
      </trkpt>
      <trkpt lat="44.95552" lon="4.22307">
        <ele>1275</ele>
        <time>2014-07-11T12:36:54Z</time>
      </trkpt>
      <trkpt lat="44.9551" lon="4.22287">
        <ele>1277</ele>
        <time>2014-07-11T12:37:18Z</time>
      </trkpt>
      <trkpt lat="44.95502" lon="4.22287">
        <ele>1277</ele>
        <time>2014-07-11T12:37:22Z</time>
      </trkpt>
      <trkpt lat="44.95468" lon="4.22271">
        <ele>1280</ele>
        <time>2014-07-11T12:37:40Z</time>
      </trkpt>
      <trkpt lat="44.95438" lon="4.22219">
        <ele>1285</ele>
        <time>2014-07-11T12:38:07Z</time>
      </trkpt>
      <trkpt lat="44.95408" lon="4.22178">
        <ele>1289</ele>
        <time>2014-07-11T12:38:30Z</time>
      </trkpt>
      <trkpt lat="44.95392" lon="4.22151">
        <ele>1291</ele>
        <time>2014-07-11T12:38:41Z</time>
      </trkpt>
      <trkpt lat="44.95369" lon="4.22049">
        <ele>1296</ele>
        <time>2014-07-11T12:39:19Z</time>
      </trkpt>
      <trkpt lat="44.95348" lon="4.22044">
        <ele>1296</ele>
        <time>2014-07-11T12:39:31Z</time>
      </trkpt>
      <trkpt lat="44.95346" lon="4.22043">
        <ele>1296</ele>
        <time>2014-07-11T12:39:32Z</time>
      </trkpt>
      <trkpt lat="44.95327" lon="4.2205">
        <ele>1300</ele>
        <time>2014-07-11T12:39:45Z</time>
      </trkpt>
      <trkpt lat="44.95303" lon="4.2206">
        <ele>1301</ele>
        <time>2014-07-11T12:39:57Z</time>
      </trkpt>
      <trkpt lat="44.95272" lon="4.22031">
        <ele>1303</ele>
        <time>2014-07-11T12:40:14Z</time>
      </trkpt>
      <trkpt lat="44.95249" lon="4.22011">
        <ele>1307</ele>
        <time>2014-07-11T12:40:28Z</time>
      </trkpt>
      <trkpt lat="44.95232" lon="4.21989">
        <ele>1310</ele>
        <time>2014-07-11T12:40:42Z</time>
      </trkpt>
      <trkpt lat="44.95198" lon="4.21943">
        <ele>1313</ele>
        <time>2014-07-11T12:41:08Z</time>
      </trkpt>
      <trkpt lat="44.95164" lon="4.21895">
        <ele>1321</ele>
        <time>2014-07-11T12:41:33Z</time>
      </trkpt>
      <trkpt lat="44.95119" lon="4.21837">
        <ele>1325</ele>
        <time>2014-07-11T12:42:05Z</time>
      </trkpt>
      <trkpt lat="44.95096" lon="4.21819">
        <ele>1328</ele>
        <time>2014-07-11T12:42:19Z</time>
      </trkpt>
      <trkpt lat="44.95061" lon="4.21759">
        <ele>1333</ele>
        <time>2014-07-11T12:42:48Z</time>
      </trkpt>
      <trkpt lat="44.9504" lon="4.21738">
        <ele>1337</ele>
        <time>2014-07-11T12:43:03Z</time>
      </trkpt>
      <trkpt lat="44.94997" lon="4.217">
        <ele>1343</ele>
        <time>2014-07-11T12:43:29Z</time>
      </trkpt>
      <trkpt lat="44.94967" lon="4.21688">
        <ele>1343</ele>
        <time>2014-07-11T12:43:55Z</time>
      </trkpt>
      <trkpt lat="44.94966" lon="4.21688">
        <ele>1343</ele>
        <time>2014-07-11T12:44:46Z</time>
      </trkpt>
      <trkpt lat="44.94961" lon="4.21674">
        <ele>1344</ele>
        <time>2014-07-11T12:45:00Z</time>
      </trkpt>
      <trkpt lat="44.94938" lon="4.21609">
        <ele>1346</ele>
        <time>2014-07-11T12:45:28Z</time>
      </trkpt>
      <trkpt lat="44.94912" lon="4.21529">
        <ele>1352</ele>
        <time>2014-07-11T12:45:59Z</time>
      </trkpt>
      <trkpt lat="44.94892" lon="4.21473">
        <ele>1358</ele>
        <time>2014-07-11T12:46:25Z</time>
      </trkpt>
      <trkpt lat="44.94882" lon="4.21444">
        <ele>1359</ele>
        <time>2014-07-11T12:46:38Z</time>
      </trkpt>
      <trkpt lat="44.9486" lon="4.2138">
        <ele>1364</ele>
        <time>2014-07-11T12:47:06Z</time>
      </trkpt>
      <trkpt lat="44.9484" lon="4.21284">
        <ele>1368</ele>
        <time>2014-07-11T12:47:38Z</time>
      </trkpt>
      <trkpt lat="44.9483" lon="4.21251">
        <ele>1368</ele>
        <time>2014-07-11T12:47:52Z</time>
      </trkpt>
      <trkpt lat="44.94815" lon="4.21222">
        <ele>1366</ele>
        <time>2014-07-11T12:48:03Z</time>
      </trkpt>
      <trkpt lat="44.94814" lon="4.21223">
        <ele>1366</ele>
        <time>2014-07-11T12:48:04Z</time>
      </trkpt>
      <trkpt lat="44.94801" lon="4.21243">
        <ele>1367</ele>
        <time>2014-07-11T12:48:39Z</time>
      </trkpt>
      <trkpt lat="44.94802" lon="4.21246">
        <ele>1367</ele>
        <time>2014-07-11T12:50:09Z</time>
      </trkpt>
      <trkpt lat="44.94819" lon="4.21223">
        <ele>1366</ele>
        <time>2014-07-11T12:50:19Z</time>
      </trkpt>
      <trkpt lat="44.94833" lon="4.21262">
        <ele>1368</ele>
        <time>2014-07-11T12:50:35Z</time>
      </trkpt>
      <trkpt lat="44.94845" lon="4.21313">
        <ele>1367</ele>
        <time>2014-07-11T12:51:39Z</time>
      </trkpt>
      <trkpt lat="44.94849" lon="4.21316">
        <ele>1367</ele>
        <time>2014-07-11T12:54:14Z</time>
      </trkpt>
      <trkpt lat="44.94846" lon="4.2131">
        <ele>1367</ele>
        <time>2014-07-11T12:54:45Z</time>
      </trkpt>
      <trkpt lat="44.94817" lon="4.21224">
        <ele>1366</ele>
        <time>2014-07-11T12:55:12Z</time>
      </trkpt>
      <trkpt lat="44.9481" lon="4.2123">
        <ele>1366</ele>
        <time>2014-07-11T12:55:16Z</time>
      </trkpt>
      <trkpt lat="44.94802" lon="4.21246">
        <ele>1367</ele>
        <time>2014-07-11T12:55:22Z</time>
      </trkpt>
      <trkpt lat="44.94719" lon="4.21222">
        <ele>1367</ele>
        <time>2014-07-11T12:55:50Z</time>
      </trkpt>
      <trkpt lat="44.94584" lon="4.21212">
        <ele>1367</ele>
        <time>2014-07-11T12:56:25Z</time>
      </trkpt>
      <trkpt lat="44.94504" lon="4.2117">
        <ele>1371</ele>
        <time>2014-07-11T12:56:46Z</time>
      </trkpt>
      <trkpt lat="44.945" lon="4.21167">
        <ele>1371</ele>
        <time>2014-07-11T12:56:47Z</time>
      </trkpt>
      <trkpt lat="44.94443" lon="4.21116">
        <ele>1371</ele>
        <time>2014-07-11T12:57:03Z</time>
      </trkpt>
      <trkpt lat="44.94306" lon="4.20975">
        <ele>1372</ele>
        <time>2014-07-11T12:57:45Z</time>
      </trkpt>
      <trkpt lat="44.94264" lon="4.20918">
        <ele>1372</ele>
        <time>2014-07-11T12:57:58Z</time>
      </trkpt>
      <trkpt lat="44.9421" lon="4.20844">
        <ele>1369</ele>
        <time>2014-07-11T12:58:14Z</time>
      </trkpt>
      <trkpt lat="44.94142" lon="4.20767">
        <ele>1362</ele>
        <time>2014-07-11T12:58:29Z</time>
      </trkpt>
      <trkpt lat="44.94136" lon="4.20761">
        <ele>1361</ele>
        <time>2014-07-11T12:58:30Z</time>
      </trkpt>
      <trkpt lat="44.94112" lon="4.2073">
        <ele>1358</ele>
        <time>2014-07-11T12:58:34Z</time>
      </trkpt>
      <trkpt lat="44.94104" lon="4.20709">
        <ele>1357</ele>
        <time>2014-07-11T12:58:36Z</time>
      </trkpt>
      <trkpt lat="44.94081" lon="4.20633">
        <ele>1348</ele>
        <time>2014-07-11T12:58:43Z</time>
      </trkpt>
      <trkpt lat="44.94065" lon="4.20586">
        <ele>1347</ele>
        <time>2014-07-11T12:58:48Z</time>
      </trkpt>
      <trkpt lat="44.94054" lon="4.20556">
        <ele>1342</ele>
        <time>2014-07-11T12:58:51Z</time>
      </trkpt>
      <trkpt lat="44.94043" lon="4.20526">
        <ele>1340</ele>
        <time>2014-07-11T12:58:54Z</time>
      </trkpt>
      <trkpt lat="44.9403" lon="4.20495">
        <ele>1335</ele>
        <time>2014-07-11T12:58:57Z</time>
      </trkpt>
      <trkpt lat="44.9402" lon="4.20475">
        <ele>1334</ele>
        <time>2014-07-11T12:58:59Z</time>
      </trkpt>
      <trkpt lat="44.94003" lon="4.20451">
        <ele>1333</ele>
        <time>2014-07-11T12:59:02Z</time>
      </trkpt>
      <trkpt lat="44.9399" lon="4.20443">
        <ele>1329</ele>
        <time>2014-07-11T12:59:04Z</time>
      </trkpt>
      <trkpt lat="44.9387" lon="4.20396">
        <ele>1324</ele>
        <time>2014-07-11T12:59:29Z</time>
      </trkpt>
      <trkpt lat="44.93792" lon="4.20412">
        <ele>1329</ele>
        <time>2014-07-11T12:59:55Z</time>
      </trkpt>
      <trkpt lat="44.93785" lon="4.20415">
        <ele>1330</ele>
        <time>2014-07-11T13:00:01Z</time>
      </trkpt>
      <trkpt lat="44.93729" lon="4.20417">
        <ele>1335</ele>
        <time>2014-07-11T13:00:27Z</time>
      </trkpt>
      <trkpt lat="44.93722" lon="4.20415">
        <ele>1338</ele>
        <time>2014-07-11T13:00:31Z</time>
      </trkpt>
      <trkpt lat="44.93701" lon="4.204">
        <ele>1341</ele>
        <time>2014-07-11T13:00:43Z</time>
      </trkpt>
      <trkpt lat="44.937" lon="4.20398">
        <ele>1341</ele>
        <time>2014-07-11T13:00:44Z</time>
      </trkpt>
      <trkpt lat="44.9369" lon="4.20383">
        <ele>1341</ele>
        <time>2014-07-11T13:00:52Z</time>
      </trkpt>
      <trkpt lat="44.93684" lon="4.20366">
        <ele>1342</ele>
        <time>2014-07-11T13:00:59Z</time>
      </trkpt>
      <trkpt lat="44.93676" lon="4.20291">
        <ele>1344</ele>
        <time>2014-07-11T13:01:29Z</time>
      </trkpt>
      <trkpt lat="44.93676" lon="4.20288">
        <ele>1344</ele>
        <time>2014-07-11T13:01:30Z</time>
      </trkpt>
      <trkpt lat="44.93655" lon="4.20194">
        <ele>1350</ele>
        <time>2014-07-11T13:02:01Z</time>
      </trkpt>
      <trkpt lat="44.9362" lon="4.20065">
        <ele>1347</ele>
        <time>2014-07-11T13:02:32Z</time>
      </trkpt>
      <trkpt lat="44.93612" lon="4.19972">
        <ele>1349</ele>
        <time>2014-07-11T13:02:49Z</time>
      </trkpt>
      <trkpt lat="44.93614" lon="4.1993">
        <ele>1350</ele>
        <time>2014-07-11T13:02:59Z</time>
      </trkpt>
      <trkpt lat="44.93614" lon="4.19866">
        <ele>1354</ele>
        <time>2014-07-11T13:03:18Z</time>
      </trkpt>
      <trkpt lat="44.93601" lon="4.1976">
        <ele>1359</ele>
        <time>2014-07-11T13:03:48Z</time>
      </trkpt>
      <trkpt lat="44.93589" lon="4.19729">
        <ele>1363</ele>
        <time>2014-07-11T13:04:00Z</time>
      </trkpt>
      <trkpt lat="44.93577" lon="4.19708">
        <ele>1367</ele>
        <time>2014-07-11T13:04:11Z</time>
      </trkpt>
      <trkpt lat="44.93552" lon="4.19647">
        <ele>1373</ele>
        <time>2014-07-11T13:04:38Z</time>
      </trkpt>
      <trkpt lat="44.93527" lon="4.19561">
        <ele>1378</ele>
        <time>2014-07-11T13:05:10Z</time>
      </trkpt>
      <trkpt lat="44.93514" lon="4.1949">
        <ele>1383</ele>
        <time>2014-07-11T13:05:34Z</time>
      </trkpt>
      <trkpt lat="44.93494" lon="4.1938">
        <ele>1389</ele>
        <time>2014-07-11T13:06:06Z</time>
      </trkpt>
      <trkpt lat="44.93464" lon="4.19298">
        <ele>1392</ele>
        <time>2014-07-11T13:06:34Z</time>
      </trkpt>
      <trkpt lat="44.93405" lon="4.19157">
        <ele>1400</ele>
        <time>2014-07-11T13:07:21Z</time>
      </trkpt>
      <trkpt lat="44.93387" lon="4.19115">
        <ele>1403</ele>
        <time>2014-07-11T13:07:37Z</time>
      </trkpt>
      <trkpt lat="44.93367" lon="4.19084">
        <ele>1404</ele>
        <time>2014-07-11T13:07:50Z</time>
      </trkpt>
      <trkpt lat="44.93365" lon="4.19082">
        <ele>1406</ele>
        <time>2014-07-11T13:07:51Z</time>
      </trkpt>
      <trkpt lat="44.93334" lon="4.19088">
        <ele>1408</ele>
        <time>2014-07-11T13:08:06Z</time>
      </trkpt>
      <trkpt lat="44.93301" lon="4.19108">
        <ele>1412</ele>
        <time>2014-07-11T13:08:22Z</time>
      </trkpt>
      <trkpt lat="44.93241" lon="4.19145">
        <ele>1418</ele>
        <time>2014-07-11T13:08:51Z</time>
      </trkpt>
      <trkpt lat="44.93195" lon="4.19111">
        <ele>1421</ele>
        <time>2014-07-11T13:09:18Z</time>
      </trkpt>
      <trkpt lat="44.93184" lon="4.19087">
        <ele>1423</ele>
        <time>2014-07-11T13:09:29Z</time>
      </trkpt>
      <trkpt lat="44.93189" lon="4.19102">
        <ele>1422</ele>
        <time>2014-07-11T13:09:40Z</time>
      </trkpt>
      <trkpt lat="44.9319" lon="4.19101">
        <ele>1422</ele>
        <time>2014-07-11T13:09:41Z</time>
      </trkpt>
      <trkpt lat="44.93172" lon="4.1905">
        <ele>1425</ele>
        <time>2014-07-11T13:10:01Z</time>
      </trkpt>
      <trkpt lat="44.93158" lon="4.19014">
        <ele>1432</ele>
        <time>2014-07-11T13:10:14Z</time>
      </trkpt>
      <trkpt lat="44.9311" lon="4.19013">
        <ele>1436</ele>
        <time>2014-07-11T13:10:39Z</time>
      </trkpt>
      <trkpt lat="44.93077" lon="4.19047">
        <ele>1442</ele>
        <time>2014-07-11T13:10:56Z</time>
      </trkpt>
      <trkpt lat="44.93018" lon="4.19106">
        <ele>1442</ele>
        <time>2014-07-11T13:11:23Z</time>
      </trkpt>
      <trkpt lat="44.92986" lon="4.19134">
        <ele>1446</ele>
        <time>2014-07-11T13:11:37Z</time>
      </trkpt>
      <trkpt lat="44.92958" lon="4.19114">
        <ele>1448</ele>
        <time>2014-07-11T13:11:49Z</time>
      </trkpt>
      <trkpt lat="44.92945" lon="4.19061">
        <ele>1453</ele>
        <time>2014-07-11T13:12:07Z</time>
      </trkpt>
      <trkpt lat="44.92941" lon="4.19047">
        <ele>1453</ele>
        <time>2014-07-11T13:12:12Z</time>
      </trkpt>
      <trkpt lat="44.92935" lon="4.19028">
        <ele>1454</ele>
        <time>2014-07-11T13:12:21Z</time>
      </trkpt>
      <trkpt lat="44.92927" lon="4.19016">
        <ele>1455</ele>
        <time>2014-07-11T13:12:27Z</time>
      </trkpt>
      <trkpt lat="44.92854" lon="4.19049">
        <ele>1459</ele>
        <time>2014-07-11T13:12:56Z</time>
      </trkpt>
      <trkpt lat="44.92813" lon="4.19073">
        <ele>1463</ele>
        <time>2014-07-11T13:13:11Z</time>
      </trkpt>
      <trkpt lat="44.9278" lon="4.19083">
        <ele>1465</ele>
        <time>2014-07-11T13:13:24Z</time>
      </trkpt>
      <trkpt lat="44.92677" lon="4.19106">
        <ele>1466</ele>
        <time>2014-07-11T13:14:05Z</time>
      </trkpt>
      <trkpt lat="44.92644" lon="4.19124">
        <ele>1469</ele>
        <time>2014-07-11T13:14:19Z</time>
      </trkpt>
      <trkpt lat="44.92636" lon="4.19135">
        <ele>1469</ele>
        <time>2014-07-11T13:14:21Z</time>
      </trkpt>
      <trkpt lat="44.92593" lon="4.19162">
        <ele>1468</ele>
        <time>2014-07-11T13:14:34Z</time>
      </trkpt>
      <trkpt lat="44.9259" lon="4.19186">
        <ele>1463</ele>
        <time>2014-07-11T13:14:49Z</time>
      </trkpt>
      <trkpt lat="44.92556" lon="4.19293">
        <ele>1466</ele>
        <time>2014-07-11T13:15:29Z</time>
      </trkpt>
      <trkpt lat="44.9254" lon="4.19326">
        <ele>1467</ele>
        <time>2014-07-11T13:15:38Z</time>
      </trkpt>
      <trkpt lat="44.92542" lon="4.19348">
        <ele>1465</ele>
        <time>2014-07-11T13:15:59Z</time>
      </trkpt>
      <trkpt lat="44.92543" lon="4.19345">
        <ele>1465</ele>
        <time>2014-07-11T13:17:19Z</time>
      </trkpt>
      <trkpt lat="44.92544" lon="4.19348">
        <ele>1465</ele>
        <time>2014-07-11T13:19:23Z</time>
      </trkpt>
      <trkpt lat="44.92545" lon="4.19348">
        <ele>1465</ele>
        <time>2014-07-11T13:19:26Z</time>
      </trkpt>
      <trkpt lat="44.92562" lon="4.19353">
        <ele>1463</ele>
        <time>2014-07-11T13:19:36Z</time>
      </trkpt>
      <trkpt lat="44.92549" lon="4.19374">
        <ele>1465</ele>
        <time>2014-07-11T13:19:53Z</time>
      </trkpt>
      <trkpt lat="44.92538" lon="4.19391">
        <ele>1466</ele>
        <time>2014-07-11T13:20:19Z</time>
      </trkpt>
      <trkpt lat="44.92537" lon="4.19392">
        <ele>1466</ele>
        <time>2014-07-11T13:20:20Z</time>
      </trkpt>
      <trkpt lat="44.92516" lon="4.19411">
        <ele>1470</ele>
        <time>2014-07-11T13:20:48Z</time>
      </trkpt>
      <trkpt lat="44.92491" lon="4.19419">
        <ele>1478</ele>
        <time>2014-07-11T13:21:22Z</time>
      </trkpt>
      <trkpt lat="44.92488" lon="4.19419">
        <ele>1478</ele>
        <time>2014-07-11T13:21:27Z</time>
      </trkpt>
      <trkpt lat="44.92451" lon="4.19439">
        <ele>1484</ele>
        <time>2014-07-11T13:21:55Z</time>
      </trkpt>
      <trkpt lat="44.92427" lon="4.19451">
        <ele>1485</ele>
        <time>2014-07-11T13:22:14Z</time>
      </trkpt>
      <trkpt lat="44.9241" lon="4.19461">
        <ele>1490</ele>
        <time>2014-07-11T13:22:35Z</time>
      </trkpt>
      <trkpt lat="44.92382" lon="4.19487">
        <ele>1490</ele>
        <time>2014-07-11T13:22:58Z</time>
      </trkpt>
      <trkpt lat="44.92381" lon="4.19487">
        <ele>1490</ele>
        <time>2014-07-11T13:22:59Z</time>
      </trkpt>
      <trkpt lat="44.92341" lon="4.19531">
        <ele>1494</ele>
        <time>2014-07-11T13:23:28Z</time>
      </trkpt>
      <trkpt lat="44.92344" lon="4.19538">
        <ele>1494</ele>
        <time>2014-07-11T13:23:34Z</time>
      </trkpt>
      <trkpt lat="44.92326" lon="4.19596">
        <ele>1497</ele>
        <time>2014-07-11T13:24:05Z</time>
      </trkpt>
      <trkpt lat="44.92327" lon="4.19612">
        <ele>1498</ele>
        <time>2014-07-11T13:24:12Z</time>
      </trkpt>
      <trkpt lat="44.92325" lon="4.19626">
        <ele>1499</ele>
        <time>2014-07-11T13:24:19Z</time>
      </trkpt>
      <trkpt lat="44.92325" lon="4.19627">
        <ele>1499</ele>
        <time>2014-07-11T13:24:20Z</time>
      </trkpt>
      <trkpt lat="44.92301" lon="4.19666">
        <ele>1500</ele>
        <time>2014-07-11T13:24:41Z</time>
      </trkpt>
      <trkpt lat="44.92312" lon="4.19687">
        <ele>1503</ele>
        <time>2014-07-11T13:25:09Z</time>
      </trkpt>
      <trkpt lat="44.92315" lon="4.19688">
        <ele>1503</ele>
        <time>2014-07-11T13:26:49Z</time>
      </trkpt>
      <trkpt lat="44.92334" lon="4.19734">
        <ele>1505</ele>
        <time>2014-07-11T13:27:36Z</time>
      </trkpt>
      <trkpt lat="44.92335" lon="4.19741">
        <ele>1505</ele>
        <time>2014-07-11T13:27:38Z</time>
      </trkpt>
      <trkpt lat="44.92296" lon="4.1977">
        <ele>1506</ele>
        <time>2014-07-11T13:27:58Z</time>
      </trkpt>
      <trkpt lat="44.92256" lon="4.19819">
        <ele>1508</ele>
        <time>2014-07-11T13:28:21Z</time>
      </trkpt>
      <trkpt lat="44.922" lon="4.19848">
        <ele>1515</ele>
        <time>2014-07-11T13:28:49Z</time>
      </trkpt>
      <trkpt lat="44.92172" lon="4.1984">
        <ele>1516</ele>
        <time>2014-07-11T13:29:03Z</time>
      </trkpt>
      <trkpt lat="44.9213" lon="4.1987">
        <ele>1523</ele>
        <time>2014-07-11T13:29:30Z</time>
      </trkpt>
      <trkpt lat="44.92109" lon="4.19886">
        <ele>1524</ele>
        <time>2014-07-11T13:29:46Z</time>
      </trkpt>
      <trkpt lat="44.92081" lon="4.19907">
        <ele>1530</ele>
        <time>2014-07-11T13:30:07Z</time>
      </trkpt>
      <trkpt lat="44.92063" lon="4.1992">
        <ele>1531</ele>
        <time>2014-07-11T13:30:21Z</time>
      </trkpt>
      <trkpt lat="44.92054" lon="4.19921">
        <ele>1532</ele>
        <time>2014-07-11T13:30:28Z</time>
      </trkpt>
      <trkpt lat="44.92033" lon="4.19884">
        <ele>1534</ele>
        <time>2014-07-11T13:30:50Z</time>
      </trkpt>
      <trkpt lat="44.92025" lon="4.19788">
        <ele>1539</ele>
        <time>2014-07-11T13:31:28Z</time>
      </trkpt>
      <trkpt lat="44.9202" lon="4.19713">
        <ele>1546</ele>
        <time>2014-07-11T13:32:01Z</time>
      </trkpt>
      <trkpt lat="44.92053" lon="4.19616">
        <ele>1550</ele>
        <time>2014-07-11T13:32:38Z</time>
      </trkpt>
      <trkpt lat="44.92056" lon="4.19519">
        <ele>1554</ele>
        <time>2014-07-11T13:33:04Z</time>
      </trkpt>
      <trkpt lat="44.92" lon="4.19257">
        <ele>1560</ele>
        <time>2014-07-11T13:34:03Z</time>
      </trkpt>
      <trkpt lat="44.91953" lon="4.1907">
        <ele>1552</ele>
        <time>2014-07-11T13:34:39Z</time>
      </trkpt>
      <trkpt lat="44.91935" lon="4.19005">
        <ele>1554</ele>
        <time>2014-07-11T13:34:51Z</time>
      </trkpt>
      <trkpt lat="44.91904" lon="4.18894">
        <ele>1562</ele>
        <time>2014-07-11T13:35:10Z</time>
      </trkpt>
      <trkpt lat="44.91902" lon="4.18887">
        <ele>1562</ele>
        <time>2014-07-11T13:35:11Z</time>
      </trkpt>
      <trkpt lat="44.91901" lon="4.18881">
        <ele>1562</ele>
        <time>2014-07-11T13:35:12Z</time>
      </trkpt>
      <trkpt lat="44.91889" lon="4.1884">
        <ele>1562</ele>
        <time>2014-07-11T13:35:19Z</time>
      </trkpt>
      <trkpt lat="44.91859" lon="4.18755">
        <ele>1562</ele>
        <time>2014-07-11T13:35:35Z</time>
      </trkpt>
      <trkpt lat="44.91857" lon="4.18751">
        <ele>1562</ele>
        <time>2014-07-11T13:35:36Z</time>
      </trkpt>
      <trkpt lat="44.91785" lon="4.18636">
        <ele>1566</ele>
        <time>2014-07-11T13:36:00Z</time>
      </trkpt>
      <trkpt lat="44.91753" lon="4.18553">
        <ele>1562</ele>
        <time>2014-07-11T13:36:30Z</time>
      </trkpt>
      <trkpt lat="44.91723" lon="4.18481">
        <ele>1569</ele>
        <time>2014-07-11T13:36:58Z</time>
      </trkpt>
      <trkpt lat="44.91673" lon="4.18359">
        <ele>1569</ele>
        <time>2014-07-11T13:37:45Z</time>
      </trkpt>
      <trkpt lat="44.91673" lon="4.18351">
        <ele>1569</ele>
        <time>2014-07-11T13:38:27Z</time>
      </trkpt>
      <trkpt lat="44.91669" lon="4.18357">
        <ele>1569</ele>
        <time>2014-07-11T13:40:03Z</time>
      </trkpt>
      <trkpt lat="44.91653" lon="4.18308">
        <ele>1576</ele>
        <time>2014-07-11T13:41:54Z</time>
      </trkpt>
      <trkpt lat="44.91611" lon="4.1816">
        <ele>1575</ele>
        <time>2014-07-11T13:42:34Z</time>
      </trkpt>
      <trkpt lat="44.91584" lon="4.1799">
        <ele>1573</ele>
        <time>2014-07-11T13:43:12Z</time>
      </trkpt>
      <trkpt lat="44.9159" lon="4.17899">
        <ele>1569</ele>
        <time>2014-07-11T13:43:31Z</time>
      </trkpt>
      <trkpt lat="44.91587" lon="4.17895">
        <ele>1568</ele>
        <time>2014-07-11T13:43:33Z</time>
      </trkpt>
      <trkpt lat="44.91547" lon="4.17923">
        <ele>1576</ele>
        <time>2014-07-11T13:43:57Z</time>
      </trkpt>
      <trkpt lat="44.91504" lon="4.17979">
        <ele>1580</ele>
        <time>2014-07-11T13:44:27Z</time>
      </trkpt>
      <trkpt lat="44.91479" lon="4.18019">
        <ele>1584</ele>
        <time>2014-07-11T13:44:44Z</time>
      </trkpt>
      <trkpt lat="44.91437" lon="4.18095">
        <ele>1588</ele>
        <time>2014-07-11T13:45:15Z</time>
      </trkpt>
      <trkpt lat="44.91377" lon="4.18206">
        <ele>1597</ele>
        <time>2014-07-11T13:45:58Z</time>
      </trkpt>
      <trkpt lat="44.91367" lon="4.18223">
        <ele>1598</ele>
        <time>2014-07-11T13:46:05Z</time>
      </trkpt>
      <trkpt lat="44.9133" lon="4.1825">
        <ele>1601</ele>
        <time>2014-07-11T13:46:30Z</time>
      </trkpt>
      <trkpt lat="44.91327" lon="4.18252">
        <ele>1602</ele>
        <time>2014-07-11T13:46:32Z</time>
      </trkpt>
      <trkpt lat="44.91287" lon="4.1828">
        <ele>1604</ele>
        <time>2014-07-11T13:47:15Z</time>
      </trkpt>
      <trkpt lat="44.91289" lon="4.18279">
        <ele>1604</ele>
        <time>2014-07-11T13:47:48Z</time>
      </trkpt>
      <trkpt lat="44.91309" lon="4.18263">
        <ele>1603</ele>
        <time>2014-07-11T13:48:03Z</time>
      </trkpt>
      <trkpt lat="44.91351" lon="4.18228">
        <ele>1598</ele>
        <time>2014-07-11T13:48:51Z</time>
      </trkpt>
      <trkpt lat="44.91359" lon="4.18226">
        <ele>1598</ele>
        <time>2014-07-11T13:48:56Z</time>
      </trkpt>
      <trkpt lat="44.91363" lon="4.1821">
        <ele>1597</ele>
        <time>2014-07-11T13:49:11Z</time>
      </trkpt>
      <trkpt lat="44.91346" lon="4.18184">
        <ele>1595</ele>
        <time>2014-07-11T13:49:25Z</time>
      </trkpt>
      <trkpt lat="44.91304" lon="4.18128">
        <ele>1588</ele>
        <time>2014-07-11T13:49:37Z</time>
      </trkpt>
      <trkpt lat="44.91273" lon="4.18114">
        <ele>1587</ele>
        <time>2014-07-11T13:49:44Z</time>
      </trkpt>
      <trkpt lat="44.91268" lon="4.18116">
        <ele>1587</ele>
        <time>2014-07-11T13:49:45Z</time>
      </trkpt>
      <trkpt lat="44.91205" lon="4.18171">
        <ele>1594</ele>
        <time>2014-07-11T13:50:07Z</time>
      </trkpt>
      <trkpt lat="44.91135" lon="4.18239">
        <ele>1595</ele>
        <time>2014-07-11T13:50:34Z</time>
      </trkpt>
      <trkpt lat="44.91065" lon="4.18286">
        <ele>1600</ele>
        <time>2014-07-11T13:51:10Z</time>
      </trkpt>
      <trkpt lat="44.91028" lon="4.18319">
        <ele>1601</ele>
        <time>2014-07-11T13:51:33Z</time>
      </trkpt>
      <trkpt lat="44.91006" lon="4.18329">
        <ele>1601</ele>
        <time>2014-07-11T13:51:47Z</time>
      </trkpt>
      <trkpt lat="44.9094" lon="4.18346">
        <ele>1601</ele>
        <time>2014-07-11T13:52:20Z</time>
      </trkpt>
      <trkpt lat="44.90917" lon="4.18365">
        <ele>1597</ele>
        <time>2014-07-11T13:52:33Z</time>
      </trkpt>
      <trkpt lat="44.90893" lon="4.18386">
        <ele>1597</ele>
        <time>2014-07-11T13:52:46Z</time>
      </trkpt>
      <trkpt lat="44.9085" lon="4.18447">
        <ele>1603</ele>
        <time>2014-07-11T13:53:13Z</time>
      </trkpt>
      <trkpt lat="44.90839" lon="4.18454">
        <ele>1603</ele>
        <time>2014-07-11T13:53:40Z</time>
      </trkpt>
      <trkpt lat="44.90842" lon="4.18461">
        <ele>1604</ele>
        <time>2014-07-11T13:55:22Z</time>
      </trkpt>
      <trkpt lat="44.90839" lon="4.18459">
        <ele>1604</ele>
        <time>2014-07-11T13:57:47Z</time>
      </trkpt>
      <trkpt lat="44.90841" lon="4.18453">
        <ele>1603</ele>
        <time>2014-07-11T13:59:51Z</time>
      </trkpt>
      <trkpt lat="44.90839" lon="4.18453">
        <ele>1603</ele>
        <time>2014-07-11T14:00:09Z</time>
      </trkpt>
      <trkpt lat="44.90829" lon="4.18456">
        <ele>1599</ele>
        <time>2014-07-11T14:00:14Z</time>
      </trkpt>
      <trkpt lat="44.90793" lon="4.18463">
        <ele>1598</ele>
        <time>2014-07-11T14:00:24Z</time>
      </trkpt>
      <trkpt lat="44.90775" lon="4.18466">
        <ele>1597</ele>
        <time>2014-07-11T14:00:28Z</time>
      </trkpt>
      <trkpt lat="44.9074" lon="4.18472">
        <ele>1592</ele>
        <time>2014-07-11T14:00:35Z</time>
      </trkpt>
      <trkpt lat="44.90673" lon="4.18489">
        <ele>1589</ele>
        <time>2014-07-11T14:00:49Z</time>
      </trkpt>
      <trkpt lat="44.90651" lon="4.18493">
        <ele>1585</ele>
        <time>2014-07-11T14:00:53Z</time>
      </trkpt>
      <trkpt lat="44.90592" lon="4.18489">
        <ele>1580</ele>
        <time>2014-07-11T14:01:03Z</time>
      </trkpt>
      <trkpt lat="44.90562" lon="4.185">
        <ele>1573</ele>
        <time>2014-07-11T14:01:07Z</time>
      </trkpt>
      <trkpt lat="44.90508" lon="4.18521">
        <ele>1574</ele>
        <time>2014-07-11T14:01:15Z</time>
      </trkpt>
      <trkpt lat="44.90471" lon="4.18538">
        <ele>1568</ele>
        <time>2014-07-11T14:01:20Z</time>
      </trkpt>
      <trkpt lat="44.90425" lon="4.18548">
        <ele>1566</ele>
        <time>2014-07-11T14:01:26Z</time>
      </trkpt>
      <trkpt lat="44.90383" lon="4.18554">
        <ele>1557</ele>
        <time>2014-07-11T14:01:32Z</time>
      </trkpt>
      <trkpt lat="44.90367" lon="4.18557">
        <ele>1556</ele>
        <time>2014-07-11T14:01:34Z</time>
      </trkpt>
      <trkpt lat="44.90333" lon="4.18552">
        <ele>1554</ele>
        <time>2014-07-11T14:01:38Z</time>
      </trkpt>
      <trkpt lat="44.90311" lon="4.18544">
        <ele>1547</ele>
        <time>2014-07-11T14:01:41Z</time>
      </trkpt>
      <trkpt lat="44.90278" lon="4.18525">
        <ele>1544</ele>
        <time>2014-07-11T14:01:51Z</time>
      </trkpt>
      <trkpt lat="44.9024" lon="4.18525">
        <ele>1538</ele>
        <time>2014-07-11T14:01:57Z</time>
      </trkpt>
      <trkpt lat="44.90211" lon="4.18515">
        <ele>1536</ele>
        <time>2014-07-11T14:02:01Z</time>
      </trkpt>
      <trkpt lat="44.90161" lon="4.18496">
        <ele>1530</ele>
        <time>2014-07-11T14:02:08Z</time>
      </trkpt>
      <trkpt lat="44.90137" lon="4.1849">
        <ele>1527</ele>
        <time>2014-07-11T14:02:12Z</time>
      </trkpt>
      <trkpt lat="44.90102" lon="4.18479">
        <ele>1525</ele>
        <time>2014-07-11T14:02:17Z</time>
      </trkpt>
      <trkpt lat="44.9008" lon="4.1847">
        <ele>1520</ele>
        <time>2014-07-11T14:02:20Z</time>
      </trkpt>
      <trkpt lat="44.90073" lon="4.18468">
        <ele>1519</ele>
        <time>2014-07-11T14:02:21Z</time>
      </trkpt>
      <trkpt lat="44.9005" lon="4.18455">
        <ele>1518</ele>
        <time>2014-07-11T14:02:25Z</time>
      </trkpt>
      <trkpt lat="44.90034" lon="4.18458">
        <ele>1517</ele>
        <time>2014-07-11T14:02:28Z</time>
      </trkpt>
      <trkpt lat="44.89992" lon="4.18491">
        <ele>1514</ele>
        <time>2014-07-11T14:02:49Z</time>
      </trkpt>
      <trkpt lat="44.89974" lon="4.18504">
        <ele>1513</ele>
        <time>2014-07-11T14:02:58Z</time>
      </trkpt>
      <trkpt lat="44.89916" lon="4.18497">
        <ele>1514</ele>
        <time>2014-07-11T14:03:25Z</time>
      </trkpt>
      <trkpt lat="44.89912" lon="4.18494">
        <ele>1515</ele>
        <time>2014-07-11T14:03:27Z</time>
      </trkpt>
      <trkpt lat="44.89878" lon="4.18473">
        <ele>1516</ele>
        <time>2014-07-11T14:03:40Z</time>
      </trkpt>
      <trkpt lat="44.89828" lon="4.18457">
        <ele>1523</ele>
        <time>2014-07-11T14:04:01Z</time>
      </trkpt>
      <trkpt lat="44.89801" lon="4.18443">
        <ele>1523</ele>
        <time>2014-07-11T14:04:16Z</time>
      </trkpt>
      <trkpt lat="44.89779" lon="4.1844">
        <ele>1525</ele>
        <time>2014-07-11T14:04:28Z</time>
      </trkpt>
      <trkpt lat="44.89773" lon="4.18438">
        <ele>1525</ele>
        <time>2014-07-11T14:04:32Z</time>
      </trkpt>
      <trkpt lat="44.89714" lon="4.18417">
        <ele>1531</ele>
        <time>2014-07-11T14:05:07Z</time>
      </trkpt>
      <trkpt lat="44.89674" lon="4.18406">
        <ele>1535</ele>
        <time>2014-07-11T14:05:32Z</time>
      </trkpt>
      <trkpt lat="44.89641" lon="4.18396">
        <ele>1540</ele>
        <time>2014-07-11T14:05:49Z</time>
      </trkpt>
      <trkpt lat="44.89624" lon="4.18388">
        <ele>1541</ele>
        <time>2014-07-11T14:05:58Z</time>
      </trkpt>
      <trkpt lat="44.89576" lon="4.18393">
        <ele>1545</ele>
        <time>2014-07-11T14:06:22Z</time>
      </trkpt>
      <trkpt lat="44.89557" lon="4.18374">
        <ele>1548</ele>
        <time>2014-07-11T14:06:35Z</time>
      </trkpt>
      <trkpt lat="44.89538" lon="4.18358">
        <ele>1550</ele>
        <time>2014-07-11T14:06:50Z</time>
      </trkpt>
      <trkpt lat="44.89513" lon="4.18368">
        <ele>1550</ele>
        <time>2014-07-11T14:07:05Z</time>
      </trkpt>
      <trkpt lat="44.89473" lon="4.18379">
        <ele>1553</ele>
        <time>2014-07-11T14:07:30Z</time>
      </trkpt>
      <trkpt lat="44.89448" lon="4.18376">
        <ele>1555</ele>
        <time>2014-07-11T14:07:46Z</time>
      </trkpt>
      <trkpt lat="44.89444" lon="4.18369">
        <ele>1556</ele>
        <time>2014-07-11T14:07:50Z</time>
      </trkpt>
      <trkpt lat="44.89414" lon="4.18352">
        <ele>1565</ele>
        <time>2014-07-11T14:08:12Z</time>
      </trkpt>
      <trkpt lat="44.89385" lon="4.1836">
        <ele>1564</ele>
        <time>2014-07-11T14:08:32Z</time>
      </trkpt>
      <trkpt lat="44.89378" lon="4.18365">
        <ele>1564</ele>
        <time>2014-07-11T14:09:05Z</time>
      </trkpt>
      <trkpt lat="44.89376" lon="4.18366">
        <ele>1564</ele>
        <time>2014-07-11T14:09:32Z</time>
      </trkpt>
      <trkpt lat="44.89376" lon="4.18364">
        <ele>1564</ele>
        <time>2014-07-11T14:10:08Z</time>
      </trkpt>
      <trkpt lat="44.89373" lon="4.18353">
        <ele>1565</ele>
        <time>2014-07-11T14:10:16Z</time>
      </trkpt>
      <trkpt lat="44.89364" lon="4.18318">
        <ele>1572</ele>
        <time>2014-07-11T14:10:40Z</time>
      </trkpt>
      <trkpt lat="44.89336" lon="4.18267">
        <ele>1574</ele>
        <time>2014-07-11T14:11:02Z</time>
      </trkpt>
      <trkpt lat="44.89331" lon="4.18258">
        <ele>1575</ele>
        <time>2014-07-11T14:11:07Z</time>
      </trkpt>
      <trkpt lat="44.89262" lon="4.18206">
        <ele>1577</ele>
        <time>2014-07-11T14:11:32Z</time>
      </trkpt>
      <trkpt lat="44.8922" lon="4.18178">
        <ele>1573</ele>
        <time>2014-07-11T14:11:46Z</time>
      </trkpt>
      <trkpt lat="44.8915" lon="4.18127">
        <ele>1571</ele>
        <time>2014-07-11T14:12:02Z</time>
      </trkpt>
      <trkpt lat="44.89025" lon="4.18041">
        <ele>1566</ele>
        <time>2014-07-11T14:12:31Z</time>
      </trkpt>
      <trkpt lat="44.89012" lon="4.1803">
        <ele>1566</ele>
        <time>2014-07-11T14:12:34Z</time>
      </trkpt>
      <trkpt lat="44.8896" lon="4.18003">
        <ele>1559</ele>
        <time>2014-07-11T14:12:44Z</time>
      </trkpt>
      <trkpt lat="44.88898" lon="4.17974">
        <ele>1554</ele>
        <time>2014-07-11T14:12:54Z</time>
      </trkpt>
      <trkpt lat="44.88863" lon="4.17959">
        <ele>1553</ele>
        <time>2014-07-11T14:12:59Z</time>
      </trkpt>
      <trkpt lat="44.88834" lon="4.17944">
        <ele>1552</ele>
        <time>2014-07-11T14:13:03Z</time>
      </trkpt>
      <trkpt lat="44.88815" lon="4.17934">
        <ele>1546</ele>
        <time>2014-07-11T14:13:06Z</time>
      </trkpt>
      <trkpt lat="44.88773" lon="4.17912">
        <ele>1544</ele>
        <time>2014-07-11T14:13:16Z</time>
      </trkpt>
      <trkpt lat="44.88751" lon="4.17903">
        <ele>1542</ele>
        <time>2014-07-11T14:13:21Z</time>
      </trkpt>
      <trkpt lat="44.88725" lon="4.17891">
        <ele>1536</ele>
        <time>2014-07-11T14:13:27Z</time>
      </trkpt>
      <trkpt lat="44.8867" lon="4.17858">
        <ele>1532</ele>
        <time>2014-07-11T14:13:44Z</time>
      </trkpt>
      <trkpt lat="44.88644" lon="4.17849">
        <ele>1527</ele>
        <time>2014-07-11T14:13:53Z</time>
      </trkpt>
      <trkpt lat="44.88637" lon="4.17861">
        <ele>1526</ele>
        <time>2014-07-11T14:13:57Z</time>
      </trkpt>
      <trkpt lat="44.88656" lon="4.17956">
        <ele>1524</ele>
        <time>2014-07-11T14:14:19Z</time>
      </trkpt>
      <trkpt lat="44.88672" lon="4.18033">
        <ele>1527</ele>
        <time>2014-07-11T14:14:34Z</time>
      </trkpt>
      <trkpt lat="44.88683" lon="4.18096">
        <ele>1524</ele>
        <time>2014-07-11T14:14:50Z</time>
      </trkpt>
      <trkpt lat="44.88662" lon="4.18118">
        <ele>1518</ele>
        <time>2014-07-11T14:14:58Z</time>
      </trkpt>
      <trkpt lat="44.88639" lon="4.18117">
        <ele>1517</ele>
        <time>2014-07-11T14:15:03Z</time>
      </trkpt>
      <trkpt lat="44.88634" lon="4.18118">
        <ele>1517</ele>
        <time>2014-07-11T14:15:04Z</time>
      </trkpt>
      <trkpt lat="44.88595" lon="4.18143">
        <ele>1514</ele>
        <time>2014-07-11T14:15:13Z</time>
      </trkpt>
      <trkpt lat="44.88575" lon="4.18154">
        <ele>1511</ele>
        <time>2014-07-11T14:15:17Z</time>
      </trkpt>
      <trkpt lat="44.8857" lon="4.18157">
        <ele>1511</ele>
        <time>2014-07-11T14:15:18Z</time>
      </trkpt>
      <trkpt lat="44.8854" lon="4.18196">
        <ele>1503</ele>
        <time>2014-07-11T14:15:29Z</time>
      </trkpt>
      <trkpt lat="44.88533" lon="4.18199">
        <ele>1503</ele>
        <time>2014-07-11T14:15:31Z</time>
      </trkpt>
      <trkpt lat="44.88524" lon="4.18203">
        <ele>1502</ele>
        <time>2014-07-11T14:15:33Z</time>
      </trkpt>
      <trkpt lat="44.88496" lon="4.18222">
        <ele>1496</ele>
        <time>2014-07-11T14:15:38Z</time>
      </trkpt>
      <trkpt lat="44.88473" lon="4.18228">
        <ele>1496</ele>
        <time>2014-07-11T14:15:41Z</time>
      </trkpt>
      <trkpt lat="44.88441" lon="4.18232">
        <ele>1494</ele>
        <time>2014-07-11T14:15:45Z</time>
      </trkpt>
      <trkpt lat="44.88433" lon="4.18233">
        <ele>1494</ele>
        <time>2014-07-11T14:15:46Z</time>
      </trkpt>
      <trkpt lat="44.88401" lon="4.18228">
        <ele>1490</ele>
        <time>2014-07-11T14:15:50Z</time>
      </trkpt>
      <trkpt lat="44.88332" lon="4.18206">
        <ele>1480</ele>
        <time>2014-07-11T14:15:58Z</time>
      </trkpt>
      <trkpt lat="44.88324" lon="4.18204">
        <ele>1480</ele>
        <time>2014-07-11T14:15:59Z</time>
      </trkpt>
      <trkpt lat="44.8827" lon="4.18177">
        <ele>1476</ele>
        <time>2014-07-11T14:16:05Z</time>
      </trkpt>
      <trkpt lat="44.88237" lon="4.18154">
        <ele>1473</ele>
        <time>2014-07-11T14:16:09Z</time>
      </trkpt>
      <trkpt lat="44.88207" lon="4.18129">
        <ele>1470</ele>
        <time>2014-07-11T14:16:13Z</time>
      </trkpt>
      <trkpt lat="44.88163" lon="4.18086">
        <ele>1467</ele>
        <time>2014-07-11T14:16:19Z</time>
      </trkpt>
      <trkpt lat="44.88124" lon="4.18055">
        <ele>1467</ele>
        <time>2014-07-11T14:16:24Z</time>
      </trkpt>
      <trkpt lat="44.88091" lon="4.18031">
        <ele>1466</ele>
        <time>2014-07-11T14:16:28Z</time>
      </trkpt>
      <trkpt lat="44.88014" lon="4.1798">
        <ele>1460</ele>
        <time>2014-07-11T14:16:37Z</time>
      </trkpt>
      <trkpt lat="44.8796" lon="4.17974">
        <ele>1454</ele>
        <time>2014-07-11T14:16:43Z</time>
      </trkpt>
      <trkpt lat="44.8795" lon="4.17976">
        <ele>1454</ele>
        <time>2014-07-11T14:16:44Z</time>
      </trkpt>
      <trkpt lat="44.8793" lon="4.17973">
        <ele>1453</ele>
        <time>2014-07-11T14:16:46Z</time>
      </trkpt>
      <trkpt lat="44.879" lon="4.17967">
        <ele>1446</ele>
        <time>2014-07-11T14:16:49Z</time>
      </trkpt>
      <trkpt lat="44.8788" lon="4.17961">
        <ele>1445</ele>
        <time>2014-07-11T14:16:51Z</time>
      </trkpt>
      <trkpt lat="44.87824" lon="4.17938">
        <ele>1434</ele>
        <time>2014-07-11T14:16:57Z</time>
      </trkpt>
      <trkpt lat="44.87814" lon="4.17964">
        <ele>1431</ele>
        <time>2014-07-11T14:17:02Z</time>
      </trkpt>
      <trkpt lat="44.87817" lon="4.17973">
        <ele>1431</ele>
        <time>2014-07-11T14:17:03Z</time>
      </trkpt>
      <trkpt lat="44.87835" lon="4.18012">
        <ele>1434</ele>
        <time>2014-07-11T14:17:07Z</time>
      </trkpt>
      <trkpt lat="44.87844" lon="4.18032">
        <ele>1434</ele>
        <time>2014-07-11T14:17:09Z</time>
      </trkpt>
      <trkpt lat="44.8786" lon="4.18079">
        <ele>1431</ele>
        <time>2014-07-11T14:17:13Z</time>
      </trkpt>
      <trkpt lat="44.87886" lon="4.18138">
        <ele>1424</ele>
        <time>2014-07-11T14:17:18Z</time>
      </trkpt>
      <trkpt lat="44.87909" lon="4.18201">
        <ele>1414</ele>
        <time>2014-07-11T14:17:23Z</time>
      </trkpt>
      <trkpt lat="44.87918" lon="4.18226">
        <ele>1415</ele>
        <time>2014-07-11T14:17:25Z</time>
      </trkpt>
      <trkpt lat="44.87933" lon="4.18252">
        <ele>1404</ele>
        <time>2014-07-11T14:17:28Z</time>
      </trkpt>
      <trkpt lat="44.87924" lon="4.18265">
        <ele>1404</ele>
        <time>2014-07-11T14:17:33Z</time>
      </trkpt>
      <trkpt lat="44.87914" lon="4.18257">
        <ele>1407</ele>
        <time>2014-07-11T14:17:35Z</time>
      </trkpt>
      <trkpt lat="44.87904" lon="4.18248">
        <ele>1410</ele>
        <time>2014-07-11T14:17:37Z</time>
      </trkpt>
      <trkpt lat="44.87889" lon="4.18227">
        <ele>1410</ele>
        <time>2014-07-11T14:17:40Z</time>
      </trkpt>
      <trkpt lat="44.87875" lon="4.1824">
        <ele>1409</ele>
        <time>2014-07-11T14:17:45Z</time>
      </trkpt>
      <trkpt lat="44.87878" lon="4.18248">
        <ele>1409</ele>
        <time>2014-07-11T14:17:46Z</time>
      </trkpt>
      <trkpt lat="44.87882" lon="4.18257">
        <ele>1401</ele>
        <time>2014-07-11T14:17:47Z</time>
      </trkpt>
      <trkpt lat="44.87886" lon="4.18266">
        <ele>1401</ele>
        <time>2014-07-11T14:17:48Z</time>
      </trkpt>
      <trkpt lat="44.87878" lon="4.1829">
        <ele>1398</ele>
        <time>2014-07-11T14:17:54Z</time>
      </trkpt>
      <trkpt lat="44.87872" lon="4.18285">
        <ele>1398</ele>
        <time>2014-07-11T14:17:55Z</time>
      </trkpt>
      <trkpt lat="44.8786" lon="4.18277">
        <ele>1398</ele>
        <time>2014-07-11T14:17:57Z</time>
      </trkpt>
      <trkpt lat="44.87842" lon="4.18288">
        <ele>1397</ele>
        <time>2014-07-11T14:18:02Z</time>
      </trkpt>
      <trkpt lat="44.8781" lon="4.18383">
        <ele>1386</ele>
        <time>2014-07-11T14:18:25Z</time>
      </trkpt>
      <trkpt lat="44.87776" lon="4.18411">
        <ele>1385</ele>
        <time>2014-07-11T14:18:48Z</time>
      </trkpt>
      <trkpt lat="44.87773" lon="4.18412">
        <ele>1385</ele>
        <time>2014-07-11T14:19:52Z</time>
      </trkpt>
      <trkpt lat="44.87773" lon="4.18412">
        <ele>1385</ele>
        <time>2014-07-11T14:23:27Z</time>
      </trkpt>
      <trkpt lat="44.87775" lon="4.18412">
        <ele>1385</ele>
        <time>2014-07-11T14:26:28Z</time>
      </trkpt>
      <trkpt lat="44.8777" lon="4.1842">
        <ele>1382</ele>
        <time>2014-07-11T14:28:13Z</time>
      </trkpt>
      <trkpt lat="44.87723" lon="4.18462">
        <ele>1384</ele>
        <time>2014-07-11T14:28:39Z</time>
      </trkpt>
      <trkpt lat="44.87688" lon="4.18484">
        <ele>1385</ele>
        <time>2014-07-11T14:28:53Z</time>
      </trkpt>
      <trkpt lat="44.87649" lon="4.18514">
        <ele>1393</ele>
        <time>2014-07-11T14:29:16Z</time>
      </trkpt>
      <trkpt lat="44.87619" lon="4.18538">
        <ele>1396</ele>
        <time>2014-07-11T14:29:34Z</time>
      </trkpt>
      <trkpt lat="44.87597" lon="4.18563">
        <ele>1398</ele>
        <time>2014-07-11T14:30:02Z</time>
      </trkpt>
      <trkpt lat="44.87565" lon="4.18587">
        <ele>1408</ele>
        <time>2014-07-11T14:30:37Z</time>
      </trkpt>
      <trkpt lat="44.87533" lon="4.18602">
        <ele>1412</ele>
        <time>2014-07-11T14:30:58Z</time>
      </trkpt>
      <trkpt lat="44.87498" lon="4.18597">
        <ele>1417</ele>
        <time>2014-07-11T14:31:22Z</time>
      </trkpt>
      <trkpt lat="44.87469" lon="4.18605">
        <ele>1420</ele>
        <time>2014-07-11T14:31:43Z</time>
      </trkpt>
      <trkpt lat="44.8745" lon="4.18608">
        <ele>1421</ele>
        <time>2014-07-11T14:32:08Z</time>
      </trkpt>
      <trkpt lat="44.87449" lon="4.18609">
        <ele>1421</ele>
        <time>2014-07-11T14:32:09Z</time>
      </trkpt>
      <trkpt lat="44.87438" lon="4.18618">
        <ele>1423</ele>
        <time>2014-07-11T14:32:29Z</time>
      </trkpt>
      <trkpt lat="44.87405" lon="4.18615">
        <ele>1426</ele>
        <time>2014-07-11T14:32:52Z</time>
      </trkpt>
      <trkpt lat="44.87403" lon="4.18614">
        <ele>1426</ele>
        <time>2014-07-11T14:32:53Z</time>
      </trkpt>
      <trkpt lat="44.87368" lon="4.18632">
        <ele>1428</ele>
        <time>2014-07-11T14:33:13Z</time>
      </trkpt>
      <trkpt lat="44.87358" lon="4.18645">
        <ele>1430</ele>
        <time>2014-07-11T14:33:20Z</time>
      </trkpt>
      <trkpt lat="44.87341" lon="4.18667">
        <ele>1438</ele>
        <time>2014-07-11T14:33:38Z</time>
      </trkpt>
      <trkpt lat="44.87301" lon="4.18705">
        <ele>1442</ele>
        <time>2014-07-11T14:34:10Z</time>
      </trkpt>
      <trkpt lat="44.87293" lon="4.18728">
        <ele>1444</ele>
        <time>2014-07-11T14:34:23Z</time>
      </trkpt>
      <trkpt lat="44.87241" lon="4.1875">
        <ele>1446</ele>
        <time>2014-07-11T14:35:02Z</time>
      </trkpt>
      <trkpt lat="44.87192" lon="4.18745">
        <ele>1445</ele>
        <time>2014-07-11T14:35:35Z</time>
      </trkpt>
      <trkpt lat="44.87164" lon="4.18741">
        <ele>1449</ele>
        <time>2014-07-11T14:35:51Z</time>
      </trkpt>
      <trkpt lat="44.87132" lon="4.18729">
        <ele>1450</ele>
        <time>2014-07-11T14:36:08Z</time>
      </trkpt>
      <trkpt lat="44.87086" lon="4.1871">
        <ele>1452</ele>
        <time>2014-07-11T14:36:30Z</time>
      </trkpt>
      <trkpt lat="44.87029" lon="4.18667">
        <ele>1454</ele>
        <time>2014-07-11T14:37:07Z</time>
      </trkpt>
      <trkpt lat="44.8696" lon="4.18633">
        <ele>1457</ele>
        <time>2014-07-11T14:37:37Z</time>
      </trkpt>
      <trkpt lat="44.8693" lon="4.18627">
        <ele>1457</ele>
        <time>2014-07-11T14:38:19Z</time>
      </trkpt>
      <trkpt lat="44.86868" lon="4.18651">
        <ele>1458</ele>
        <time>2014-07-11T14:38:45Z</time>
      </trkpt>
      <trkpt lat="44.8683" lon="4.18665">
        <ele>1461</ele>
        <time>2014-07-11T14:38:57Z</time>
      </trkpt>
      <trkpt lat="44.86755" lon="4.18645">
        <ele>1459</ele>
        <time>2014-07-11T14:39:24Z</time>
      </trkpt>
      <trkpt lat="44.86687" lon="4.18616">
        <ele>1462</ele>
        <time>2014-07-11T14:39:50Z</time>
      </trkpt>
      <trkpt lat="44.86635" lon="4.18579">
        <ele>1466</ele>
        <time>2014-07-11T14:40:17Z</time>
      </trkpt>
      <trkpt lat="44.86598" lon="4.18531">
        <ele>1467</ele>
        <time>2014-07-11T14:40:45Z</time>
      </trkpt>
      <trkpt lat="44.86597" lon="4.1853">
        <ele>1467</ele>
        <time>2014-07-11T14:40:46Z</time>
      </trkpt>
      <trkpt lat="44.86581" lon="4.18512">
        <ele>1470</ele>
        <time>2014-07-11T14:40:58Z</time>
      </trkpt>
      <trkpt lat="44.86487" lon="4.1843">
        <ele>1469</ele>
        <time>2014-07-11T14:41:52Z</time>
      </trkpt>
      <trkpt lat="44.86407" lon="4.18388">
        <ele>1466</ele>
        <time>2014-07-11T14:42:18Z</time>
      </trkpt>
      <trkpt lat="44.86337" lon="4.18356">
        <ele>1465</ele>
        <time>2014-07-11T14:42:39Z</time>
      </trkpt>
      <trkpt lat="44.86232" lon="4.18312">
        <ele>1467</ele>
        <time>2014-07-11T14:43:14Z</time>
      </trkpt>
      <trkpt lat="44.86146" lon="4.18242">
        <ele>1469</ele>
        <time>2014-07-11T14:43:54Z</time>
      </trkpt>
      <trkpt lat="44.86125" lon="4.1822">
        <ele>1470</ele>
        <time>2014-07-11T14:44:28Z</time>
      </trkpt>
      <trkpt lat="44.861" lon="4.18208">
        <ele>1470</ele>
        <time>2014-07-11T14:44:40Z</time>
      </trkpt>
      <trkpt lat="44.85961" lon="4.18186">
        <ele>1472</ele>
        <time>2014-07-11T14:45:40Z</time>
      </trkpt>
      <trkpt lat="44.8593" lon="4.18193">
        <ele>1472</ele>
        <time>2014-07-11T14:45:54Z</time>
      </trkpt>
      <trkpt lat="44.85843" lon="4.18195">
        <ele>1471</ele>
        <time>2014-07-11T14:46:19Z</time>
      </trkpt>
      <trkpt lat="44.858" lon="4.18234">
        <ele>1466</ele>
        <time>2014-07-11T14:46:30Z</time>
      </trkpt>
      <trkpt lat="44.85767" lon="4.18243">
        <ele>1463</ele>
        <time>2014-07-11T14:46:37Z</time>
      </trkpt>
      <trkpt lat="44.85763" lon="4.1824">
        <ele>1463</ele>
        <time>2014-07-11T14:46:38Z</time>
      </trkpt>
      <trkpt lat="44.85722" lon="4.18204">
        <ele>1459</ele>
        <time>2014-07-11T14:46:47Z</time>
      </trkpt>
      <trkpt lat="44.85676" lon="4.18172">
        <ele>1460</ele>
        <time>2014-07-11T14:46:57Z</time>
      </trkpt>
      <trkpt lat="44.8567" lon="4.1821">
        <ele>1458</ele>
        <time>2014-07-11T14:47:04Z</time>
      </trkpt>
      <trkpt lat="44.85634" lon="4.18283">
        <ele>1450</ele>
        <time>2014-07-11T14:47:20Z</time>
      </trkpt>
      <trkpt lat="44.856" lon="4.18278">
        <ele>1450</ele>
        <time>2014-07-11T14:47:26Z</time>
      </trkpt>
      <trkpt lat="44.8559" lon="4.18355">
        <ele>1445</ele>
        <time>2014-07-11T14:47:41Z</time>
      </trkpt>
      <trkpt lat="44.85588" lon="4.18384">
        <ele>1443</ele>
        <time>2014-07-11T14:47:45Z</time>
      </trkpt>
      <trkpt lat="44.85539" lon="4.18454">
        <ele>1436</ele>
        <time>2014-07-11T14:48:00Z</time>
      </trkpt>
      <trkpt lat="44.85491" lon="4.18486">
        <ele>1433</ele>
        <time>2014-07-11T14:48:10Z</time>
      </trkpt>
      <trkpt lat="44.85458" lon="4.18498">
        <ele>1432</ele>
        <time>2014-07-11T14:48:16Z</time>
      </trkpt>
      <trkpt lat="44.85444" lon="4.18507">
        <ele>1425</ele>
        <time>2014-07-11T14:48:19Z</time>
      </trkpt>
      <trkpt lat="44.85408" lon="4.1853">
        <ele>1422</ele>
        <time>2014-07-11T14:48:26Z</time>
      </trkpt>
      <trkpt lat="44.85364" lon="4.18532">
        <ele>1421</ele>
        <time>2014-07-11T14:48:34Z</time>
      </trkpt>
      <trkpt lat="44.85325" lon="4.18536">
        <ele>1418</ele>
        <time>2014-07-11T14:48:43Z</time>
      </trkpt>
      <trkpt lat="44.85335" lon="4.18552">
        <ele>1419</ele>
        <time>2014-07-11T14:48:47Z</time>
      </trkpt>
      <trkpt lat="44.8541" lon="4.18629">
        <ele>1411</ele>
        <time>2014-07-11T14:49:03Z</time>
      </trkpt>
      <trkpt lat="44.85422" lon="4.18645">
        <ele>1412</ele>
        <time>2014-07-11T14:49:06Z</time>
      </trkpt>
      <trkpt lat="44.85464" lon="4.18706">
        <ele>1405</ele>
        <time>2014-07-11T14:49:16Z</time>
      </trkpt>
      <trkpt lat="44.85507" lon="4.18763">
        <ele>1401</ele>
        <time>2014-07-11T14:49:25Z</time>
      </trkpt>
      <trkpt lat="44.85519" lon="4.18778">
        <ele>1400</ele>
        <time>2014-07-11T14:49:28Z</time>
      </trkpt>
      <trkpt lat="44.85537" lon="4.18796">
        <ele>1400</ele>
        <time>2014-07-11T14:49:32Z</time>
      </trkpt>
      <trkpt lat="44.85516" lon="4.18842">
        <ele>1393</ele>
        <time>2014-07-11T14:49:46Z</time>
      </trkpt>
      <trkpt lat="44.8548" lon="4.18853">
        <ele>1388</ele>
        <time>2014-07-11T14:49:52Z</time>
      </trkpt>
      <trkpt lat="44.85404" lon="4.18878">
        <ele>1383</ele>
        <time>2014-07-11T14:50:02Z</time>
      </trkpt>
      <trkpt lat="44.85363" lon="4.18891">
        <ele>1381</ele>
        <time>2014-07-11T14:50:07Z</time>
      </trkpt>
      <trkpt lat="44.85312" lon="4.189">
        <ele>1376</ele>
        <time>2014-07-11T14:50:13Z</time>
      </trkpt>
      <trkpt lat="44.85269" lon="4.18911">
        <ele>1373</ele>
        <time>2014-07-11T14:50:18Z</time>
      </trkpt>
      <trkpt lat="44.85211" lon="4.18921">
        <ele>1364</ele>
        <time>2014-07-11T14:50:25Z</time>
      </trkpt>
      <trkpt lat="44.85186" lon="4.18928">
        <ele>1363</ele>
        <time>2014-07-11T14:50:28Z</time>
      </trkpt>
      <trkpt lat="44.85148" lon="4.18945">
        <ele>1360</ele>
        <time>2014-07-11T14:50:33Z</time>
      </trkpt>
      <trkpt lat="44.85106" lon="4.18964">
        <ele>1359</ele>
        <time>2014-07-11T14:50:42Z</time>
      </trkpt>
      <trkpt lat="44.85096" lon="4.1895">
        <ele>1359</ele>
        <time>2014-07-11T14:50:51Z</time>
      </trkpt>
      <trkpt lat="44.85106" lon="4.18936">
        <ele>1360</ele>
        <time>2014-07-11T14:51:01Z</time>
      </trkpt>
      <trkpt lat="44.85112" lon="4.18922">
        <ele>1360</ele>
        <time>2014-07-11T14:51:08Z</time>
      </trkpt>
      <trkpt lat="44.85122" lon="4.18879">
        <ele>1365</ele>
        <time>2014-07-11T14:51:38Z</time>
      </trkpt>
      <trkpt lat="44.85124" lon="4.1888">
        <ele>1365</ele>
        <time>2014-07-11T14:52:23Z</time>
      </trkpt>
      <trkpt lat="44.85125" lon="4.18887">
        <ele>1365</ele>
        <time>2014-07-11T14:53:45Z</time>
      </trkpt>
      <trkpt lat="44.85124" lon="4.18888">
        <ele>1365</ele>
        <time>2014-07-11T14:54:22Z</time>
      </trkpt>
    </trkseg>
  </trk>
</gpx>